Portsmouth, Virginia - KPWR: 24-hour Summary Portsmouth Weather Records Service - Portsmouth, Virginia



LOCAL CLIMATOLOGICAL DATA: This Month's Data
[updated each morning between 7AM and 9AM]
Station: Portsmouth, Virginia - KPWR Latitude: 36° 48' 04" N Longitude: 76° 19' 37" W Elevation (ground): 13 ft. Time Zone: Eastern

BE SURE TO RELOAD/REFRESH THIS SCREEN FOR DAILY UPDATES BY RIGHT-CLICKING THE BACKGROUND The data in this frame and listed below are final adjusted site data for the time period.

-------------------------------------------------------------------------------------------------------------------------------------------
WEDNESDAY		Temp	Hi	Low	Out	Dew	Wind	Wind	Wind	Hi	Hi	Wind	Heat	THW			Rain	Heat	Cool	In 	In	In 	In 	Wind	Wind	ISS 	Arc.
Date		Time	Out	Temp	Temp	Hum	Pt.	Speed	Dir	Run	Speed	Dir	Chill	Index	Index	Bar  	Rain	Rate	D-D 	D-D 	Temp	Hum	Dew	Heat	Samp	Tx 	Recept	Int.
11/01/17	1:00 a	50.1	51.4	50.1	91	47.6	0.0	---	0.00	0.0	---	50.1	50.4	50.4	30.176	0.00	0.00	0.621	0.000	79.5	39	52.4	78.5	1403	1	100.0	60
11/01/17	2:00 a	49.1	50.1	49.1	92	46.9	0.0	---	0.00	0.0	---	49.1	49.5	49.5	30.173	0.00	0.00	0.663	0.000	78.6	39	51.6	77.7	1405	1	100.0	60
11/01/17	3:00 a	48.2	49.1	48.2	93	46.3	0.0	---	0.00	0.0	---	48.2	48.5	48.5	30.173	0.00	0.00	0.700	0.000	77.7	39	50.8	76.8	1405	1	100.0	60
11/01/17	4:00 a	47.7	48.2	47.6	94	46.1	0.0	---	0.00	0.0	---	47.7	48.0	48.0	30.170	0.00	0.00	0.721	0.000	77.5	39	50.6	76.6	1405	1	100.0	60
11/01/17	5:00 a	47.3	47.7	47.3	94	45.7	0.0	---	0.00	0.0	---	47.3	47.6	47.6	30.176	0.00	0.00	0.738	0.000	77.3	39	50.4	76.4	1405	1	100.0	60
11/01/17	6:00 a	47.0	47.3	47.0	95	45.6	0.0	---	0.00	0.0	---	47.0	47.3	47.3	30.185	0.00	0.00	0.750	0.000	77.0	39	50.1	76.2	1405	1	100.0	60
11/01/17	7:00 a	46.6	47.0	46.5	95	45.2	0.0	---	0.00	0.0	---	46.6	46.9	46.9	30.189	0.00	0.00	0.767	0.000	77.4	39	50.5	76.5	1405	1	100.0	60
11/01/17	8:00 a	46.5	46.6	46.5	96	45.4	0.0	---	0.00	0.0	---	46.5	46.8	46.8	30.205	0.00	0.00	0.771	0.000	77.7	38	50.1	76.7	1404	1	100.0	60
11/01/17	9:00 a	48.9	48.9	46.5	99	48.6	0.0	---	0.00	0.0	---	48.9	49.5	49.5	30.232	0.00	0.00	0.671	0.000	77.9	39	50.9	76.9	1405	1	100.0	60
11/01/17	10:00 a	55.6	55.6	49.0	100	55.6	0.0	---	0.00	0.0	---	55.6	56.0	56.0	30.236	0.00	0.00	0.392	0.000	80.1	38	52.2	78.9	1405	1	100.0	60
11/01/17	11:00 a	61.3	61.3	55.7	89	58.0	0.0	---	0.00	0.0	---	61.3	61.7	61.7	30.240	0.00	0.00	0.154	0.000	79.9	38	52.0	78.7	1405	1	100.0	60
11/01/17	12:00 p	66.2	66.2	61.3	76	58.4	0.0	---	0.00	0.0	---	66.2	66.8	66.8	30.226	0.00	0.00	0.000	0.050	81.6	38	53.5	80.6	1405	1	100.0	60
11/01/17	1:00 p	69.8	69.8	66.2	65	57.5	0.0	---	0.00	0.0	---	69.8	69.5	69.5	30.208	0.00	0.00	0.000	0.200	83.0	38	54.8	82.3	1405	1	100.0	60
11/01/17	2:00 p	71.6	71.6	69.8	61	57.4	0.0	SSW	0.00	12.0	SSW	71.6	71.4	71.4	30.184	0.00	0.00	0.000	0.275	83.6	39	56.0	83.5	1405	1	100.0	60
11/01/17	3:00 p	72.6	72.6	71.6	57	56.5	0.0	---	0.00	0.0	---	72.6	72.6	72.6	30.168	0.00	0.00	0.000	0.317	86.1	38	57.5	85.9	1405	1	100.0	60
11/01/17	4:00 p	72.8	73.2	72.6	55	55.7	0.0	SSW	0.00	4.0	SSW	72.8	72.7	72.7	30.174	0.00	0.00	0.000	0.325	86.7	38	58.1	86.6	1405	1	100.0	60
11/01/17	5:00 p	71.9	72.8	71.9	60	57.3	0.0	---	0.00	0.0	---	71.9	71.8	71.8	30.176	0.00	0.00	0.000	0.288	86.2	39	58.3	86.2	1405	1	100.0	60
11/01/17	6:00 p	69.4	71.9	69.4	64	56.7	0.0	---	0.00	0.0	---	69.4	69.1	69.1	30.185	0.00	0.00	0.000	0.183	85.9	39	58.1	85.9	1405	1	100.0	60
11/01/17	7:00 p	65.8	69.4	65.8	72	56.5	0.0	---	0.00	0.0	---	65.8	66.1	66.1	30.202	0.00	0.00	0.000	0.033	84.6	41	58.3	85.0	1405	1	100.0	60
11/01/17	8:00 p	62.9	65.8	62.9	82	57.3	0.0	---	0.00	0.0	---	62.9	63.3	63.3	30.213	0.00	0.00	0.087	0.000	83.7	41	57.5	84.0	1405	1	100.0	60
11/01/17	9:00 p	61.6	63.0	61.6	87	57.7	0.0	---	0.00	0.0	---	61.6	61.9	61.9	30.222	0.00	0.00	0.142	0.000	82.9	41	56.8	82.7	1404	1	100.0	60
11/01/17	10:00 p	60.8	61.6	60.8	92	58.5	0.0	---	0.00	0.0	---	60.8	61.2	61.2	30.224	0.00	0.00	0.175	0.000	82.0	41	56.0	81.4	1405	1	100.0	60
11/01/17	11:00 p	60.3	60.8	60.3	93	58.3	0.0	---	0.00	0.0	---	60.3	60.7	60.7	30.228	0.00	0.00	0.196	0.000	81.0	42	55.7	80.2	1405	1	100.0	60
11/02/17	12:00 a	59.2	60.3	59.2	93	57.2	0.0	---	0.00	0.0	---	59.2	59.5	59.5	30.222	0.00	0.00	0.242	0.000	80.6	42	55.4	79.8	1405	1	100.0	60

THURSDAY		Temp	Hi	Low	Out	Dew	Wind	Wind	Wind	Hi	Hi	Wind	Heat	THW			Rain	Heat	Cool	In 	In	In 	In 	Wind	Wind	ISS 	Arc.
Date		Time	Out	Temp	Temp	Hum	Pt.	Speed	Dir	Run	Speed	Dir	Chill	Index	Index	Bar  	Rain	Rate	D-D 	D-D 	Temp	Hum	Dew	Heat	Samp	Tx 	Recept	Int.
11/02/17	1:00 a	58.4	59.2	58.4	94	56.7	0.0	---	0.00	0.0	---	58.4	58.7	58.7	30.221	0.00	0.00	0.275	0.000	80.2	42	55.0	79.4	1404	1	100.0	60
11/02/17	2:00 a	58.4	58.4	58.3	95	57.0	0.0	---	0.00	0.0	---	58.4	58.7	58.7	30.212	0.00	0.00	0.275	0.000	79.7	42	54.6	79.0	1405	1	100.0	60
11/02/17	3:00 a	58.3	58.5	58.3	95	56.9	0.0	---	0.00	0.0	---	58.3	58.6	58.6	30.213	0.00	0.00	0.279	0.000	79.4	42	54.3	78.7	1405	1	100.0	60
11/02/17	4:00 a	58.0	58.4	58.0	96	56.9	0.0	---	0.00	0.0	---	58.0	58.3	58.3	30.208	0.00	0.00	0.292	0.000	78.7	42	53.7	78.1	1405	1	100.0	60
11/02/17	5:00 a	57.8	58.0	57.8	96	56.7	0.0	---	0.00	0.0	---	57.8	58.1	58.1	30.217	0.00	0.00	0.300	0.000	78.5	42	53.5	77.8	1405	1	100.0	60
11/02/17	6:00 a	58.0	58.0	57.8	97	57.2	0.0	---	0.00	0.0	---	58.0	58.3	58.3	30.219	0.00	0.00	0.292	0.000	79.1	42	54.0	78.5	1405	1	100.0	60
11/02/17	7:00 a	58.2	58.2	58.0	97	57.4	0.0	---	0.00	0.0	---	58.2	58.6	58.6	30.225	0.00	0.00	0.283	0.000	79.7	41	53.9	78.9	1405	1	100.0	60
11/02/17	8:00 a	58.4	58.4	58.2	97	57.6	0.0	---	0.00	0.0	---	58.4	58.8	58.8	30.226	0.00	0.00	0.275	0.000	79.0	42	53.9	78.4	1404	1	100.0	60
11/02/17	9:00 a	59.8	59.8	58.4	98	59.2	0.0	---	0.00	0.0	---	59.8	60.3	60.3	30.242	0.00	0.00	0.217	0.000	79.5	41	53.7	78.7	1406	1	100.0	60
11/02/17	10:00 a	63.0	63.0	59.8	99	62.7	0.0	---	0.00	0.0	---	63.0	64.0	64.0	30.249	0.00	0.00	0.083	0.000	79.8	42	54.7	79.1	1405	1	100.0	60
11/02/17	11:00 a	67.3	67.3	63.0	88	63.6	0.0	---	0.00	0.0	---	67.3	68.8	68.8	30.244	0.00	0.00	0.000	0.096	82.1	43	57.4	81.8	1404	1	100.0	60
11/02/17	12:00 p	72.1	72.1	67.3	71	62.2	0.0	---	0.00	0.0	---	72.1	72.9	72.9	30.239	0.00	0.00	0.000	0.296	84.1	41	57.9	84.5	1405	1	100.0	60
11/02/17	1:00 p	75.0	75.0	72.2	63	61.5	0.0	---	0.00	0.0	---	75.0	76.1	76.1	30.211	0.00	0.00	0.000	0.417	85.5	41	59.1	85.8	1405	1	100.0	60
11/02/17	2:00 p	76.3	76.3	74.9	56	59.4	0.0	---	0.00	0.0	---	76.3	76.7	76.7	30.191	0.00	0.00	0.000	0.471	86.2	42	60.4	86.8	1405	1	100.0	60
11/02/17	3:00 p	76.6	77.2	76.3	65	64.0	0.0	NE	0.00	14.0	NE	76.6	77.9	77.9	30.177	0.00	0.00	0.000	0.483	87.9	41	61.3	88.3	1405	1	100.0	60
11/02/17	4:00 p	75.7	76.6	75.4	68	64.4	0.0	NE	0.00	14.0	ENE	75.7	77.3	77.3	30.165	0.00	0.00	0.000	0.446	89.2	41	62.4	90.6	1405	1	100.0	60
11/02/17	5:00 p	74.9	75.9	74.9	71	64.9	0.0	---	0.00	0.0	---	74.9	76.7	76.7	30.168	0.00	0.00	0.000	0.413	88.5	42	62.5	89.7	1405	1	100.0	60
11/02/17	6:00 p	72.7	74.9	72.7	71	62.8	0.0	---	0.00	0.0	---	72.7	73.8	73.8	30.175	0.00	0.00	0.000	0.321	88.0	41	61.3	88.4	1405	1	100.0	60
11/02/17	7:00 p	69.7	72.7	69.7	80	63.3	0.0	---	0.00	0.0	---	69.7	70.9	70.9	30.177	0.00	0.00	0.000	0.196	87.3	42	61.4	88.1	1405	1	100.0	60
11/02/17	8:00 p	67.4	69.7	67.4	84	62.4	0.0	---	0.00	0.0	---	67.4	68.7	68.7	30.175	0.00	0.00	0.000	0.100	85.8	42	60.1	86.3	1405	1	100.0	60
11/02/17	9:00 p	65.0	67.4	65.0	88	61.4	0.0	---	0.00	0.0	---	65.0	65.9	65.9	30.171	0.00	0.00	0.000	0.000	85.0	43	60.0	85.6	1405	1	100.0	60
11/02/17	10:00 p	63.4	65.1	63.4	91	60.7	0.0	---	0.00	0.0	---	63.4	64.2	64.2	30.174	0.00	0.00	0.067	0.000	84.3	43	59.4	85.0	1404	1	100.0	60
11/02/17	11:00 p	62.1	63.4	62.1	92	59.7	0.0	---	0.00	0.0	---	62.1	62.7	62.7	30.174	0.00	0.00	0.121	0.000	83.4	43	58.6	83.8	1405	1	100.0	60
11/03/17	12:00 a	60.7	62.1	60.7	92	58.4	0.0	---	0.00	0.0	---	60.7	61.1	61.1	30.170	0.00	0.00	0.179	0.000	82.8	43	58.0	82.9	1405	1	100.0	60

FRIDAY			Temp	Hi	Low	Out	Dew	Wind	Wind	Wind	Hi	Hi	Wind	Heat	THW			Rain	Heat	Cool	In 	In	In 	In 	Wind	Wind	ISS 	Arc.
Date		Time	Out	Temp	Temp	Hum	Pt.	Speed	Dir	Run	Speed	Dir	Chill	Index	Index	Bar  	Rain	Rate	D-D 	D-D 	Temp	Hum	Dew	Heat	Samp	Tx 	Recept	Int.
11/03/17	1:00 a	59.5	60.7	59.5	94	57.8	0.0	---	0.00	0.0	---	59.5	59.9	59.9	30.155	0.00	0.00	0.229	0.000	82.4	44	58.3	82.4	1404	1	100.0	60
11/03/17	2:00 a	58.5	59.5	58.5	94	56.8	0.0	---	0.00	0.0	---	58.5	58.8	58.8	30.141	0.00	0.00	0.271	0.000	81.8	44	57.8	81.5	1405	1	100.0	60
11/03/17	3:00 a	57.7	58.5	57.7	95	56.3	0.0	---	0.00	0.0	---	57.7	58.0	58.0	30.133	0.00	0.00	0.304	0.000	81.1	44	57.1	80.6	1405	1	100.0	60
11/03/17	4:00 a	57.1	57.7	57.1	95	55.7	0.0	---	0.00	0.0	---	57.1	57.3	57.3	30.113	0.00	0.00	0.329	0.000	80.6	44	56.7	80.1	1405	1	100.0	60
11/03/17	5:00 a	56.4	57.1	56.4	95	55.0	0.0	---	0.00	0.0	---	56.4	56.6	56.6	30.110	0.00	0.00	0.358	0.000	80.3	43	55.8	79.7	1405	1	100.0	60
11/03/17	6:00 a	55.7	56.4	55.7	96	54.6	0.0	---	0.00	0.0	---	55.7	55.9	55.9	30.114	0.00	0.00	0.387	0.000	79.9	43	55.4	79.3	1405	1	100.0	60
11/03/17	7:00 a	55.0	55.7	55.0	96	53.9	0.0	---	0.00	0.0	---	55.0	55.2	55.2	30.111	0.00	0.00	0.417	0.000	79.5	43	55.0	78.9	1405	1	100.0	60
11/03/17	8:00 a	54.7	55.0	54.7	96	53.6	0.0	---	0.00	0.0	---	54.7	54.9	54.9	30.114	0.00	0.00	0.429	0.000	79.5	44	55.7	79.0	1405	1	100.0	60
11/03/17	9:00 a	56.2	56.2	54.7	99	55.9	0.0	---	0.00	0.0	---	56.2	56.6	56.6	30.117	0.00	0.00	0.367	0.000	79.7	43	55.2	79.1	1404	1	100.0	60
11/03/17	10:00 a	61.5	61.5	56.2	100	61.5	0.0	---	0.00	0.0	---	61.5	62.3	62.3	30.118	0.00	0.00	0.146	0.000	80.9	43	56.3	80.3	1406	1	100.0	60
11/03/17	11:00 a	65.4	65.4	61.5	97	64.5	0.0	SW	0.00	5.0	SW	65.4	66.7	66.7	30.109	0.00	0.00	0.000	0.017	82.6	42	57.2	82.4	1404	1	100.0	60
11/03/17	12:00 p	71.0	71.0	65.5	81	64.9	0.0	W	0.00	5.0	W	71.0	72.4	72.4	30.093	0.00	0.00	0.000	0.250	84.4	42	58.8	85.0	1406	1	100.0	60
11/03/17	1:00 p	74.4	74.4	71.0	71	64.4	0.0	W	0.00	15.0	SW	74.4	76.1	76.1	30.060	0.00	0.00	0.000	0.392	85.8	42	60.1	86.3	1404	1	100.0	60
11/03/17	2:00 p	76.5	76.5	74.4	65	63.9	0.0	SSW	0.00	10.0	SSE	76.5	77.8	77.8	30.029	0.00	0.00	0.000	0.479	86.4	42	60.6	87.1	1405	1	100.0	60
11/03/17	3:00 p	77.6	77.6	76.5	63	64.0	0.0	ESE	0.00	7.0	SSE	77.6	78.8	78.8	30.012	0.00	0.00	0.000	0.525	89.1	41	62.3	90.5	1405	1	100.0	60
11/03/17	4:00 p	78.1	78.1	77.6	60	63.1	0.0	SSW	0.00	7.0	SW	78.1	79.0	79.0	30.010	0.00	0.00	0.000	0.546	89.9	41	63.0	91.5	1405	1	100.0	60
11/03/17	5:00 p	77.6	78.2	77.6	64	64.5	0.0	SW	0.00	7.0	SSW	77.6	78.9	78.9	30.017	0.00	0.00	0.000	0.525	89.5	42	63.4	91.4	1405	1	100.0	60
11/03/17	6:00 p	75.9	77.7	75.9	68	64.6	0.0	W	0.00	7.0	W	75.9	77.5	77.5	30.028	0.00	0.00	0.000	0.454	89.1	42	63.0	90.9	1405	1	100.0	60
11/03/17	7:00 p	72.7	75.9	72.7	75	64.3	0.0	---	0.00	0.0	---	72.7	74.0	74.0	30.043	0.00	0.00	0.000	0.321	88.2	42	62.2	89.1	1405	1	100.0	60
11/03/17	8:00 p	69.6	72.7	69.6	81	63.5	0.0	---	0.00	0.0	---	69.6	70.9	70.9	30.050	0.00	0.00	0.000	0.192	86.4	44	61.9	87.5	1405	1	100.0	60
11/03/17	9:00 p	67.3	69.6	67.3	85	62.6	0.0	---	0.00	0.0	---	67.3	68.7	68.7	30.055	0.00	0.00	0.000	0.096	85.5	44	61.1	86.4	1405	1	100.0	60
11/03/17	10:00 p	65.5	67.3	65.5	88	61.9	0.0	---	0.00	0.0	---	65.5	66.6	66.6	30.072	0.00	0.00	0.000	0.021	84.9	44	60.6	85.7	1405	1	100.0	60
11/03/17	11:00 p	64.4	65.5	64.4	90	61.4	0.0	---	0.00	0.0	---	64.4	65.3	65.3	30.073	0.00	0.00	0.025	0.000	84.4	44	60.1	85.3	1405	1	100.0	60
11/04/17	12:00 a	63.7	64.4	63.7	93	61.6	0.0	NW	0.00	6.0	NW	63.7	64.6	64.6	30.087	0.00	0.00	0.054	0.000	83.9	44	59.7	84.8	1404	1	100.0	60

SATURDAY		Temp	Hi	Low	Out	Dew	Wind	Wind	Wind	Hi	Hi	Wind	Heat	THW			Rain	Heat	Cool	In 	In	In 	In 	Wind	Wind	ISS 	Arc.
Date		Time	Out	Temp	Temp	Hum	Pt.	Speed	Dir	Run	Speed	Dir	Chill	Index	Index	Bar  	Rain	Rate	D-D 	D-D 	Temp	Hum	Dew	Heat	Samp	Tx 	Recept	Int.
11/04/17	1:00 a	63.5	63.8	63.4	95	62.0	0.0	---	0.00	0.0	---	63.5	64.4	64.4	30.096	0.00	0.00	0.063	0.000	83.3	44	59.1	83.8	1403	1	100.0	60
11/04/17	2:00 a	68.4	68.4	63.5	85	63.7	4.0	NE	4.00	21.0	NE	68.4	70.0	70.0	30.104	0.00	0.00	0.000	0.142	82.8	45	59.3	83.2	1405	1	100.0	60
11/04/17	3:00 a	66.9	69.0	66.9	88	63.2	5.0	NE	5.00	20.0	NNE	66.9	68.3	68.3	30.122	0.00	0.00	0.000	0.079	82.7	44	58.6	82.9	1405	1	100.0	60
11/04/17	4:00 a	65.8	66.9	65.8	90	62.8	5.0	NE	5.00	23.0	NE	65.8	67.0	67.0	30.131	0.00	0.00	0.000	0.033	82.3	45	58.8	82.4	1405	1	100.0	60
11/04/17	5:00 a	64.7	65.9	64.7	84	59.8	6.0	NE	6.00	22.0	NE	64.7	65.4	65.4	30.153	0.00	0.00	0.013	0.000	81.9	45	58.5	81.8	1405	1	100.0	60
11/04/17	6:00 a	62.6	64.7	62.6	85	58.0	6.0	NE	6.00	21.0	NE	62.6	63.0	63.0	30.180	0.00	0.00	0.100	0.000	81.8	45	58.4	81.6	1405	1	100.0	60
11/04/17	7:00 a	61.2	62.6	61.2	84	56.3	7.0	NE	7.00	21.0	ENE	60.7	61.4	60.9	30.193	0.00	0.00	0.158	0.000	81.9	45	58.5	81.8	1405	1	100.0	60
11/04/17	8:00 a	60.8	61.2	60.7	84	55.9	5.0	NE	5.00	18.0	NNE	60.8	60.9	60.9	30.207	0.00	0.00	0.175	0.000	81.5	45	58.1	81.3	1405	1	100.0	60
11/04/17	9:00 a	60.2	60.8	60.2	84	55.3	4.0	NE	4.00	17.0	ENE	60.2	60.3	60.3	30.226	0.00	0.00	0.200	0.000	81.6	44	57.6	81.3	1405	1	100.0	60
11/04/17	10:00 a	60.2	60.2	60.1	85	55.7	6.0	NE	6.00	19.0	NNE	59.8	60.3	59.9	30.233	0.00	0.00	0.200	0.000	81.2	45	57.8	80.9	1405	1	100.0	60
11/04/17	11:00 a	60.6	60.6	60.2	84	55.7	5.0	NE	5.00	19.0	ENE	60.6	60.7	60.7	30.236	0.00	0.00	0.183	0.000	81.0	44	57.0	80.5	1405	1	100.0	60
11/04/17	12:00 p	62.3	62.3	60.6	81	56.4	5.0	NE	5.00	21.0	ENE	62.3	62.6	62.6	30.230	0.00	0.00	0.113	0.000	80.8	44	56.9	80.3	1404	1	100.0	60
11/04/17	1:00 p	63.3	63.3	62.3	81	57.4	4.0	NE	4.00	20.0	ENE	63.3	63.7	63.7	30.199	0.00	0.00	0.071	0.000	81.2	44	57.2	80.7	1406	1	100.0	60
11/04/17	2:00 p	63.8	63.8	63.3	80	57.5	4.0	NE	4.00	19.0	ENE	63.8	64.3	64.3	30.183	0.00	0.00	0.050	0.000	81.4	45	58.0	81.1	1404	1	100.0	60
11/04/17	3:00 p	63.6	63.8	63.5	82	58.0	5.0	NE	5.00	18.0	NNE	63.6	64.1	64.1	30.172	0.00	0.00	0.058	0.000	81.6	46	58.8	81.5	1405	1	100.0	60
11/04/17	4:00 p	63.5	63.6	63.4	83	58.2	4.0	NE	4.00	18.0	NE	63.5	64.0	64.0	30.165	0.00	0.00	0.063	0.000	81.2	46	58.5	81.0	1405	1	100.0	60
11/04/17	5:00 p	63.6	63.7	63.4	83	58.3	4.0	NE	4.00	15.0	NE	63.6	64.1	64.1	30.171	0.00	0.00	0.058	0.000	81.6	46	58.8	81.5	1405	1	100.0	60
11/04/17	6:00 p	62.9	63.6	62.9	86	58.6	0.0	NE	0.00	14.0	ENE	62.9	63.4	63.4	30.176	0.00	0.00	0.087	0.000	81.3	45	57.9	81.0	1405	1	100.0	60
11/04/17	7:00 p	63.0	63.0	62.8	90	60.0	5.0	NE	5.00	16.0	E	63.0	63.7	63.7	30.168	0.00	0.00	0.083	0.000	81.1	45	57.7	80.7	1405	1	100.0	60
11/04/17	8:00 p	63.8	63.8	63.0	89	60.5	5.0	NE	5.00	14.0	ENE	63.8	64.5	64.5	30.165	0.00	0.00	0.050	0.000	81.8	45	58.4	81.6	1405	1	100.0	60
11/04/17	9:00 p	64.1	64.1	63.8	90	61.1	4.0	NE	4.00	10.0	ENE	64.1	64.9	64.9	30.156	0.00	0.00	0.038	0.000	81.5	45	58.1	81.3	1405	1	100.0	60
11/04/17	10:00 p	64.1	64.2	64.1	90	61.1	4.0	NE	4.00	13.0	ENE	64.1	64.9	64.9	30.172	0.00	0.00	0.038	0.000	81.2	45	57.8	80.9	1405	1	100.0	60
11/04/17	11:00 p	64.1	64.3	64.1	89	60.8	0.0	---	0.00	0.0	---	64.1	64.9	64.9	30.183	0.00	0.00	0.038	0.000	80.9	46	58.2	80.6	1405	1	100.0	60
11/05/17	12:00 a	64.0	64.1	64.0	88	60.4	0.0	---	0.00	0.0	---	64.0	64.7	64.7	30.171	0.00	0.00	0.042	0.000	81.1	46	58.4	80.9	1405	1	100.0	60

SUNDAY			Temp	Hi	Low	Out	Dew	Wind	Wind	Wind	Hi	Hi	Wind	Heat	THW			Rain	Heat	Cool	In 	In	In 	In 	Wind	Wind	ISS 	Arc.
Date		Time	Out	Temp	Temp	Hum	Pt.	Speed	Dir	Run	Speed	Dir	Chill	Index	Index	Bar  	Rain	Rate	D-D 	D-D 	Temp	Hum	Dew	Heat	Samp	Tx 	Recept	Int.
11/05/17	1:00 a	64.2	64.2	64.0	89	60.9	0.0	ENE	0.00	7.0	ENE	64.2	65.0	65.0	30.162	0.00	0.00	0.033	0.000	81.4	46	58.6	81.2	1403	1	100.0	60
11/05/17	2:00 a	63.6	64.2	63.6	90	60.6	0.0	---	0.00	0.0	---	63.6	64.4	64.4	30.147	0.00	0.00	0.058	0.000	80.7	46	58.0	80.4	1405	1	100.0	60
11/05/17	3:00 a	63.5	63.6	63.5	91	60.8	0.0	---	0.00	0.0	---	63.5	64.3	64.3	30.143	0.00	0.00	0.063	0.000	80.4	46	57.7	80.1	1405	1	100.0	60
11/05/17	4:00 a	63.4	63.5	63.3	93	61.3	0.0	---	0.00	0.0	---	63.4	64.2	64.2	30.150	0.00	0.00	0.067	0.000	80.1	46	57.5	79.8	1405	1	100.0	60
11/05/17	5:00 a	62.7	63.4	62.7	93	60.6	0.0	NW	0.00	10.0	NW	62.7	63.4	63.4	30.146	0.00	0.00	0.096	0.000	80.0	46	57.4	79.7	1405	1	100.0	60
11/05/17	6:00 a	62.4	62.7	62.4	93	60.3	0.0	---	0.00	0.0	---	62.4	63.1	63.1	30.148	0.00	0.00	0.108	0.000	80.6	45	57.3	80.2	1405	1	100.0	60
11/05/17	7:00 a	62.1	62.4	62.0	94	60.4	0.0	---	0.00	0.0	---	62.1	62.8	62.8	30.161	0.00	0.00	0.121	0.000	80.5	45	57.2	80.1	1405	1	100.0	60
11/05/17	8:00 a	64.0	64.0	62.1	94	62.2	0.0	NE	0.00	5.0	NE	64.0	65.0	65.0	30.167	0.00	0.00	0.042	0.000	80.6	46	57.9	80.3	1405	1	100.0	60
11/05/17	9:00 a	66.6	66.6	64.0	89	63.3	0.0	NE	0.00	11.0	ENE	66.6	68.0	68.0	30.176	0.00	0.00	0.000	0.067	81.0	46	58.3	80.7	1405	1	100.0	60
11/05/17	10:00 a	67.7	67.7	66.6	87	63.7	0.0	ENE	0.00	13.0	ENE	67.7	69.2	69.2	30.173	0.00	0.00	0.000	0.112	82.1	45	58.7	82.1	1405	1	100.0	60
11/05/17	11:00 a	69.6	69.6	67.7	85	64.9	0.0	S	0.00	10.0	SSE	69.6	71.2	71.2	30.163	0.00	0.00	0.000	0.192	82.8	45	59.3	83.2	1405	1	100.0	60
11/05/17	12:00 p	70.6	70.6	69.6	83	65.2	0.0	ENE	0.00	7.0	ENE	70.6	72.1	72.1	30.138	0.00	0.00	0.000	0.233	83.0	45	59.5	83.5	1404	1	100.0	60
11/05/17	1:00 p	71.8	71.8	70.6	83	66.4	0.0	E	0.00	5.0	SE	71.8	73.4	73.4	30.118	0.00	0.00	0.000	0.283	83.8	45	60.2	84.8	1405	1	100.0	60
11/05/17	2:00 p	72.7	72.7	71.8	80	66.2	0.0	ESE	0.00	6.0	ESE	72.7	74.4	74.4	30.102	0.00	0.00	0.000	0.321	80.6	51	60.8	80.9	1405	1	100.0	60
11/05/17	3:00 p	72.4	72.7	72.4	80	65.9	0.0	SSE	0.00	5.0	SE	72.4	74.0	74.0	30.103	0.00	0.00	0.000	0.308	80.7	53	62.0	81.3	1406	1	100.0	60
11/05/17	4:00 p	71.7	72.5	71.7	82	65.9	0.0	NW	0.00	6.0	NW	71.7	73.2	73.2	30.096	0.00	0.00	0.000	0.279	80.7	53	62.0	81.3	1404	1	100.0	60
11/05/17	5:00 p	70.0	71.7	70.0	84	64.9	0.0	ENE	0.00	6.0	NNE	70.0	71.4	71.4	30.088	0.00	0.00	0.000	0.208	80.2	54	62.0	80.8	1405	1	100.0	60
11/05/17	6:00 p	68.2	70.0	68.2	86	63.9	0.0	NE	0.00	4.0	NE	68.2	69.8	69.8	30.088	0.00	0.00	0.000	0.133	82.9	50	62.4	84.0	1405	1	100.0	60
11/05/17	7:00 p	66.4	68.2	66.4	90	63.4	0.0	ESE	0.00	6.0	ESE	66.4	67.8	67.8	30.087	0.00	0.00	0.000	0.058	83.4	48	61.7	84.6	1405	1	100.0	60
11/05/17	8:00 p	65.2	66.4	65.2	92	62.8	0.0	SE	0.00	6.0	SE	65.2	66.3	66.3	30.083	0.00	0.00	0.000	0.008	83.0	47	60.7	83.8	1405	1	100.0	60
11/05/17	9:00 p	64.2	65.2	64.2	93	62.1	0.0	---	0.00	0.0	---	64.2	65.2	65.2	30.084	0.00	0.00	0.033	0.000	82.6	47	60.3	83.1	1405	1	100.0	60
11/05/17	10:00 p	63.4	64.2	63.4	94	61.6	0.0	---	0.00	0.0	---	63.4	64.3	64.3	30.087	0.00	0.00	0.067	0.000	82.1	47	59.9	82.3	1405	1	100.0	60
11/05/17	11:00 p	62.3	63.4	62.3	94	60.6	0.0	---	0.00	0.0	---	62.3	63.0	63.0	30.087	0.00	0.00	0.113	0.000	81.6	47	59.4	81.6	1405	1	100.0	60
11/06/17	12:00 a	61.1	62.3	61.1	94	59.4	0.0	---	0.00	0.0	---	61.1	61.6	61.6	30.076	0.00	0.00	0.163	0.000	81.5	47	59.3	81.5	1405	1	100.0	60

MONDAY			Temp	Hi	Low	Out	Dew	Wind	Wind	Wind	Hi	Hi	Wind	Heat	THW			Rain	Heat	Cool	In 	In	In 	In 	Wind	Wind	ISS 	Arc.
Date		Time	Out	Temp	Temp	Hum	Pt.	Speed	Dir	Run	Speed	Dir	Chill	Index	Index	Bar  	Rain	Rate	D-D 	D-D 	Temp	Hum	Dew	Heat	Samp	Tx 	Recept	Int.
11/06/17	1:00 a	61.0	61.1	60.7	96	59.9	0.0	---	0.00	0.0	---	61.0	61.5	61.5	30.062	0.00	0.00	0.167	0.000	81.2	47	59.1	81.1	1403	1	100.0	60
11/06/17	2:00 a	61.6	61.6	61.0	97	60.7	0.0	---	0.00	0.0	---	61.6	62.3	62.3	30.052	0.00	0.00	0.142	0.000	80.8	47	58.7	80.6	1406	1	100.0	60
11/06/17	3:00 a	62.2	62.2	61.6	98	61.6	0.0	---	0.00	0.0	---	62.2	63.0	63.0	30.044	0.00	0.00	0.117	0.000	80.4	47	58.3	80.2	1404	1	100.0	60
11/06/17	4:00 a	62.7	62.7	62.2	98	62.1	0.0	---	0.00	0.0	---	62.7	63.6	63.6	30.041	0.00	0.00	0.096	0.000	80.0	48	58.5	79.9	1405	1	100.0	60
11/06/17	5:00 a	62.5	62.8	62.5	97	61.6	0.0	---	0.00	0.0	---	62.5	63.3	63.3	30.033	0.00	0.00	0.104	0.000	79.8	48	58.4	79.7	1405	1	100.0	60
11/06/17	6:00 a	62.0	62.5	62.0	98	61.4	0.0	---	0.00	0.0	---	62.0	62.8	62.8	30.045	0.00	0.00	0.125	0.000	79.6	48	58.2	79.5	1405	1	100.0	60
11/06/17	7:00 a	62.3	62.4	62.0	98	61.7	0.0	---	0.00	0.0	---	62.3	63.1	63.1	30.038	0.00	0.00	0.113	0.000	79.9	48	58.5	79.8	1405	1	100.0	60
11/06/17	8:00 a	62.9	62.9	62.3	99	62.6	0.0	---	0.00	0.0	---	62.9	63.8	63.8	30.030	0.00	0.00	0.087	0.000	80.4	47	58.3	80.2	1405	1	100.0	60
11/06/17	9:00 a	64.6	64.6	62.9	98	64.0	0.0	SSW	0.00	6.0	SW	64.6	65.8	65.8	30.030	0.00	0.00	0.017	0.000	81.0	47	58.9	80.8	1405	1	100.0	60
11/06/17	10:00 a	67.6	67.6	64.6	94	65.8	0.0	SE	0.00	13.0	SSW	67.6	69.3	69.3	30.026	0.00	0.00	0.000	0.108	78.3	53	59.8	78.6	1405	1	100.0	60
11/06/17	11:00 a	71.2	71.2	67.6	84	66.1	0.0	SSW	0.00	15.0	SW	71.2	72.9	72.9	30.005	0.00	0.00	0.000	0.258	79.7	52	60.5	80.0	1405	1	100.0	60
11/06/17	12:00 p	74.8	74.8	71.2	76	66.7	0.0	SSW	0.00	15.0	S	74.8	76.9	76.9	29.987	0.00	0.00	0.000	0.408	80.9	52	61.6	81.4	1405	1	100.0	60
11/06/17	1:00 p	76.3	76.3	74.8	74	67.4	0.0	SSW	0.00	19.0	S	76.3	78.6	78.6	29.952	0.00	0.00	0.000	0.471	81.7	52	62.4	82.5	1405	1	100.0	60
11/06/17	2:00 p	77.0	77.1	76.3	72	67.3	0.0	SSW	0.00	17.0	SSW	77.0	79.1	79.1	29.937	0.00	0.00	0.000	0.500	82.7	52	63.3	84.0	1405	1	100.0	60
11/06/17	3:00 p	76.4	77.2	76.4	74	67.5	0.0	SSW	0.00	16.0	S	76.4	78.7	78.7	29.929	0.00	0.00	0.000	0.475	83.3	52	63.8	85.0	1404	1	100.0	60
11/06/17	4:00 p	75.1	76.4	75.1	76	67.0	0.0	S	0.00	6.0	S	75.1	77.3	77.3	29.933	0.00	0.00	0.000	0.421	87.0	48	64.9	89.5	1405	1	100.0	60
11/06/17	5:00 p	73.9	75.2	73.9	77	66.2	0.0	SSW	0.00	11.0	W	73.9	75.8	75.8	29.940	0.00	0.00	0.000	0.371	87.0	47	64.3	89.2	1405	1	100.0	60
11/06/17	6:00 p	71.9	73.9	71.9	81	65.8	0.0	SSW	0.00	7.0	SSW	71.9	73.4	73.4	29.968	0.00	0.00	0.000	0.288	86.1	47	63.5	87.7	1405	1	100.0	60
11/06/17	7:00 p	71.0	71.9	71.0	83	65.6	0.0	SW	0.00	5.0	SW	71.0	72.6	72.6	29.976	0.00	0.00	0.000	0.250	85.3	48	63.4	86.9	1405	1	100.0	60
11/06/17	8:00 p	70.5	71.0	70.5	85	65.8	0.0	---	0.00	0.0	---	70.5	72.2	72.2	29.991	0.00	0.00	0.000	0.229	84.7	48	62.8	86.2	1405	1	100.0	60
11/06/17	9:00 p	69.9	70.5	69.9	87	65.9	0.0	---	0.00	0.0	---	69.9	71.6	71.6	30.003	0.00	0.00	0.000	0.204	84.3	48	62.5	85.8	1405	1	100.0	60
11/06/17	10:00 p	69.1	69.9	69.1	88	65.4	0.0	---	0.00	0.0	---	69.1	71.0	71.0	30.013	0.00	0.00	0.000	0.171	83.9	49	62.7	85.5	1405	1	100.0	60
11/06/17	11:00 p	68.6	69.2	68.6	88	64.9	0.0	---	0.00	0.0	---	68.6	70.4	70.4	30.023	0.00	0.00	0.000	0.150	83.5	49	62.3	84.9	1405	1	100.0	60
11/07/17	12:00 a	67.5	68.6	67.5	89	64.1	0.0	---	0.00	0.0	---	67.5	69.1	69.1	30.022	0.00	0.00	0.000	0.104	83.2	49	62.1	84.4	1405	1	100.0	60

TUESDAY			Temp	Hi	Low	Out	Dew	Wind	Wind	Wind	Hi	Hi	Wind	Heat	THW			Rain	Heat	Cool	In 	In	In 	In 	Wind	Wind	ISS 	Arc.
Date		Time	Out	Temp	Temp	Hum	Pt.	Speed	Dir	Run	Speed	Dir	Chill	Index	Index	Bar  	Rain	Rate	D-D 	D-D 	Temp	Hum	Dew	Heat	Samp	Tx 	Recept	Int.
11/07/17	1:00 a	66.8	67.5	66.8	89	63.5	0.0	NW	0.00	17.0	NW	66.8	68.2	68.2	30.029	0.00	0.00	0.000	0.075	83.0	49	61.9	84.1	1404	1	100.0	60
11/07/17	2:00 a	66.4	66.9	66.4	89	63.1	0.0	---	0.00	0.0	---	66.4	67.7	67.7	30.041	0.00	0.00	0.000	0.058	82.7	49	61.6	83.6	1405	1	100.0	60
11/07/17	3:00 a	65.8	66.4	65.8	90	62.8	4.0	NE	4.00	15.0	NNE	65.8	67.0	67.0	30.036	0.00	0.00	0.000	0.033	82.3	49	61.2	82.9	1404	1	100.0	60
11/07/17	4:00 a	64.2	65.8	64.2	90	61.2	5.0	NE	5.00	17.0	ENE	64.2	65.0	65.0	30.044	0.00	0.00	0.033	0.000	82.0	49	61.0	82.5	1405	1	100.0	60
11/07/17	5:00 a	63.2	64.2	63.2	90	60.2	4.0	NE	4.00	15.0	NE	63.2	63.9	63.9	30.075	0.00	0.00	0.075	0.000	81.6	49	60.6	81.9	1405	1	100.0	60
11/07/17	6:00 a	61.8	63.2	61.8	91	59.1	5.0	NE	5.00	18.0	NE	61.8	62.3	62.3	30.069	0.00	0.00	0.133	0.000	81.3	49	60.3	81.5	1405	1	100.0	60
11/07/17	7:00 a	61.1	61.8	61.1	91	58.5	6.0	NE	6.00	20.0	ENE	60.9	61.5	61.3	30.088	0.00	0.00	0.163	0.000	81.4	49	60.4	81.6	1405	1	100.0	60
11/07/17	8:00 a	59.0	61.1	59.0	92	56.7	10.0	NE	10.00	18.0	ENE	55.8	59.3	56.1	30.098	0.00	0.00	0.250	0.000	82.1	48	60.5	82.5	1405	1	100.0	60
11/07/17	9:00 a	59.1	59.2	59.0	89	55.9	10.0	NE	10.00	20.0	ENE	55.9	59.3	56.1	30.096	0.00	0.00	0.246	0.000	81.9	48	60.3	82.2	1405	1	100.0	60
11/07/17	10:00 a	58.6	59.1	58.6	89	55.4	7.0	NE	7.00	16.0	NNE	57.5	58.7	57.6	30.091	0.00	0.00	0.267	0.000	80.0	49	59.1	80.0	1405	1	100.0	60
11/07/17	11:00 a	58.7	58.7	58.5	88	55.2	5.0	NE	5.00	15.0	NE	58.4	58.8	58.5	30.070	0.00	0.00	0.262	0.000	76.9	53	58.5	77.0	1405	1	100.0	60
11/07/17	12:00 p	59.2	59.3	58.7	89	56.0	4.0	NE	4.00	16.0	NNE	59.2	59.4	59.4	30.048	0.00	0.00	0.242	0.000	76.7	54	58.8	76.9	1405	1	100.0	60
11/07/17	1:00 p	59.3	59.5	59.2	90	56.4	0.0	NW	0.00	11.0	NW	59.3	59.5	59.5	30.029	0.00	0.00	0.238	0.000	76.4	54	58.5	76.6	1405	1	100.0	60
11/07/17	2:00 p	58.8	59.3	58.7	93	56.8	0.0	NE	0.00	10.0	NNE	58.8	59.1	59.1	29.986	0.00	0.00	0.258	0.000	76.0	54	58.2	76.2	1405	1	100.0	60
11/07/17	3:00 p	58.7	58.8	58.6	93	56.7	4.0	NE	4.00	12.0	E	58.7	59.0	59.0	29.985	0.00	0.00	0.262	0.000	75.6	54	57.8	75.9	1405	1	100.0	60
11/07/17	4:00 p	58.0	58.8	58.0	95	56.6	4.0	NW	4.00	16.0	NW	58.0	58.3	58.3	29.976	0.00	0.00	0.292	0.000	75.2	54	57.4	75.6	1405	1	100.0	60
11/07/17	5:00 p	55.5	58.0	55.5	94	53.8	0.0	N	0.00	18.0	NW	55.5	55.7	55.7	29.981	0.00	0.00	0.396	0.000	74.7	54	56.9	75.0	1404	1	100.0	60
11/07/17	6:00 p	53.0	55.5	53.0	95	51.6	0.0	N	0.00	16.0	NNW	53.0	53.3	53.3	30.002	0.01	0.00	0.500	0.000	74.3	54	56.6	74.5	1405	1	100.0	60
11/07/17	7:00 p	51.1	53.1	51.1	96	50.0	0.0	N	0.00	18.0	NNW	51.1	51.5	51.5	30.009	0.01	0.00	0.579	0.000	73.9	54	56.2	74.0	1406	1	100.0	60
11/07/17	8:00 p	51.4	51.5	51.0	96	50.3	0.0	NNW	0.00	17.0	NNW	51.4	51.8	51.8	30.004	0.00	0.00	0.567	0.000	79.5	47	57.5	79.3	1404	1	100.0	60
11/07/17	9:00 p	50.6	51.4	50.6	96	49.5	0.0	N	0.00	18.0	NNW	50.6	51.1	51.1	30.018	0.00	0.00	0.600	0.000	79.9	46	57.3	79.6	1405	1	100.0	60
11/07/17	10:00 p	50.8	50.8	50.5	97	50.0	0.0	N	0.00	21.0	N	50.8	51.3	51.3	30.015	0.02	0.06	0.592	0.000	79.9	46	57.3	79.6	1405	1	100.0	60
11/07/17	11:00 p	50.6	50.8	50.5	97	49.8	0.0	N	0.00	20.0	NW	50.6	51.1	51.1	30.035	0.11	1.97	0.600	0.000	80.0	45	56.7	79.6	1405	1	100.0	60
11/08/17	12:00 a	50.3	50.5	49.9	98	49.8	0.0	N	0.00	17.0	NW	50.3	50.9	50.9	30.032	0.02	0.00	0.613	0.000	80.6	44	56.7	80.1	1405	1	100.0	60

WEDNESDAY		Temp	Hi	Low	Out	Dew	Wind	Wind	Wind	Hi	Hi	Wind	Heat	THW			Rain	Heat	Cool	In 	In	In 	In 	Wind	Wind	ISS 	Arc.
Date		Time	Out	Temp	Temp	Hum	Pt.	Speed	Dir	Run	Speed	Dir	Chill	Index	Index	Bar  	Rain	Rate	D-D 	D-D 	Temp	Hum	Dew	Heat	Samp	Tx 	Recept	Int.
11/08/17	1:00 a	51.5	51.5	50.3	98	51.0	0.0	N	0.00	19.0	NW	51.5	52.0	52.0	30.020	0.00	0.00	0.563	0.000	80.8	44	56.9	80.3	1404	1	100.0	60
11/08/17	2:00 a	51.2	51.9	51.1	96	50.1	4.0	NNW	4.00	20.0	NNW	50.2	51.6	50.6	30.038	0.00	0.00	0.575	0.000	80.8	44	56.9	80.3	1405	1	100.0	60
11/08/17	3:00 a	51.0	51.2	50.8	96	49.9	5.0	NNW	5.00	23.0	N	49.4	51.4	49.8	30.049	0.00	0.00	0.583	0.000	80.8	43	56.2	80.2	1404	1	100.0	60
11/08/17	4:00 a	50.9	51.1	50.8	97	50.1	4.0	N	4.00	20.0	N	49.9	51.4	50.4	30.053	0.01	0.00	0.587	0.000	80.7	43	56.1	80.1	1405	1	100.0	60
11/08/17	5:00 a	51.3	51.3	50.9	98	50.8	0.0	NE	0.00	15.0	NE	51.3	51.8	51.8	30.068	0.02	0.00	0.571	0.000	80.8	43	56.2	80.2	1405	1	100.0	60
11/08/17	6:00 a	51.7	51.7	51.3	98	51.2	0.0	NE	0.00	19.0	NE	51.7	52.2	52.2	30.092	0.01	0.00	0.554	0.000	79.4	44	55.6	79.0	1405	1	100.0	60
11/08/17	7:00 a	52.0	52.0	51.7	98	51.5	0.0	ENE	0.00	13.0	N	52.0	52.4	52.4	30.102	0.01	0.00	0.542	0.000	79.0	44	55.2	78.6	1405	1	100.0	60
11/08/17	8:00 a	52.0	52.0	51.8	98	51.5	0.0	ENE	0.00	16.0	ENE	52.0	52.4	52.4	30.118	0.02	0.00	0.542	0.000	79.2	44	55.4	78.8	1405	1	100.0	60
11/08/17	9:00 a	51.9	52.0	51.9	98	51.4	0.0	NE	0.00	17.0	NE	51.9	52.3	52.3	30.121	0.01	0.00	0.546	0.000	78.7	43	54.3	78.2	1405	1	100.0	60
11/08/17	10:00 a	51.9	52.0	51.8	98	51.4	0.0	NE	0.00	17.0	NW	51.9	52.3	52.3	30.138	0.01	0.00	0.546	0.000	73.5	50	53.7	73.1	1405	1	100.0	60
11/08/17	11:00 a	51.7	51.9	51.7	97	50.9	0.0	NE	0.00	19.0	NE	51.7	52.1	52.1	30.142	0.03	0.00	0.554	0.000	74.1	50	54.3	73.8	1405	1	100.0	60
11/08/17	12:00 p	51.8	51.8	51.7	98	51.3	0.0	NNE	0.00	4.0	ENE	51.8	52.2	52.2	30.130	0.08	0.15	0.550	0.000	73.2	51	54.0	72.8	1405	1	100.0	60
11/08/17	1:00 p	52.3	52.3	51.8	98	51.8	0.0	ENE	0.00	6.0	ENE	52.3	52.7	52.7	30.099	0.05	0.11	0.529	0.000	73.3	51	54.1	73.0	1405	1	100.0	60
11/08/17	2:00 p	52.9	52.9	52.3	98	52.4	0.0	N	0.00	11.0	N	52.9	53.3	53.3	30.108	0.08	0.29	0.504	0.000	74.0	50	54.2	73.7	1405	1	100.0	60
11/08/17	3:00 p	53.4	53.4	52.9	98	52.8	0.0	NNW	0.00	11.0	NNW	53.4	53.7	53.7	30.109	0.07	0.31	0.483	0.000	73.0	51	53.8	72.6	1405	1	100.0	60
11/08/17	4:00 p	53.6	53.7	53.3	98	53.0	0.0	N	0.00	10.0	NNE	53.6	53.9	53.9	30.116	0.03	0.07	0.475	0.000	73.8	50	54.0	73.5	1404	1	100.0	60
11/08/17	5:00 p	53.2	53.7	53.1	98	52.7	0.0	N	0.00	4.0	N	53.2	53.6	53.6	30.114	0.04	0.05	0.492	0.000	74.3	50	54.5	74.1	1405	1	100.0	60
11/08/17	6:00 p	53.5	53.5	53.2	98	52.9	0.0	E	0.00	4.0	E	53.5	53.8	53.8	30.134	0.01	0.04	0.479	0.000	73.1	51	53.9	72.7	1405	1	100.0	60
11/08/17	7:00 p	53.4	53.5	53.4	98	52.8	0.0	ENE	0.00	4.0	N	53.4	53.7	53.7	30.134	0.00	0.00	0.483	0.000	72.8	51	53.6	72.3	1405	1	100.0	60
11/08/17	8:00 p	53.7	53.7	53.4	97	52.9	0.0	---	0.00	0.0	---	53.7	54.0	54.0	30.144	0.00	0.00	0.471	0.000	74.2	50	54.4	74.0	1405	1	100.0	60
11/08/17	9:00 p	54.2	54.2	53.7	96	53.1	0.0	NNE	0.00	19.0	NE	54.2	54.4	54.4	30.138	0.00	0.00	0.450	0.000	74.6	51	55.3	74.6	1405	1	100.0	60
11/08/17	10:00 p	54.4	54.4	54.2	95	53.0	0.0	NE	0.00	17.0	NE	54.4	54.6	54.6	30.140	0.00	0.00	0.442	0.000	74.8	50	54.9	74.8	1405	1	100.0	60
11/08/17	11:00 p	54.3	54.4	54.3	95	52.9	0.0	---	0.00	0.0	---	54.3	54.5	54.5	30.129	0.00	0.00	0.446	0.000	73.9	51	54.6	73.7	1405	1	100.0	60
11/09/17	12:00 a	54.8	54.8	54.3	95	53.4	0.0	---	0.00	0.0	---	54.8	55.0	55.0	30.109	0.00	0.00	0.425	0.000	73.2	51	54.0	72.8	1405	1	100.0	60

THURSDAY		Temp	Hi	Low	Out	Dew	Wind	Wind	Wind	Hi	Hi	Wind	Heat	THW			Rain	Heat	Cool	In 	In	In 	In 	Wind	Wind	ISS 	Arc.
Date		Time	Out	Temp	Temp	Hum	Pt.	Speed	Dir	Run	Speed	Dir	Chill	Index	Index	Bar  	Rain	Rate	D-D 	D-D 	Temp	Hum	Dew	Heat	Samp	Tx 	Recept	Int.
11/09/17	1:00 a	55.1	55.3	54.8	96	54.0	0.0	NE	0.00	4.0	NE	55.1	55.3	55.3	30.099	0.03	0.11	0.413	0.000	72.7	51	53.5	72.2	1404	1	100.0	60
11/09/17	2:00 a	54.8	55.1	54.8	97	54.0	0.0	---	0.00	0.0	---	54.8	55.1	55.1	30.097	0.04	0.08	0.425	0.000	72.2	51	53.1	71.5	1404	1	100.0	60
11/09/17	3:00 a	55.1	55.1	54.8	98	54.5	0.0	---	0.00	0.0	---	55.1	55.4	55.4	30.078	0.02	0.08	0.413	0.000	72.0	51	52.9	71.2	1405	1	100.0	60
11/09/17	4:00 a	55.4	55.4	55.1	98	54.8	0.0	---	0.00	0.0	---	55.4	55.7	55.7	30.078	0.01	0.00	0.400	0.000	71.6	52	53.0	70.7	1406	1	100.0	60
11/09/17	5:00 a	55.6	55.7	55.4	99	55.3	0.0	---	0.00	0.0	---	55.6	56.0	56.0	30.083	0.03	0.06	0.392	0.000	72.3	52	53.7	71.7	1405	1	100.0	60
11/09/17	6:00 a	56.1	56.1	55.6	99	55.8	0.0	---	0.00	0.0	---	56.1	56.5	56.5	30.084	0.04	0.04	0.371	0.000	72.6	51	53.4	72.0	1404	1	100.0	60
11/09/17	7:00 a	56.5	56.5	56.1	99	56.2	0.0	---	0.00	0.0	---	56.5	56.9	56.9	30.086	0.01	0.04	0.354	0.000	78.0	46	55.5	77.7	1405	1	100.0	60
11/09/17	8:00 a	57.2	57.2	56.5	99	56.9	0.0	---	0.00	0.0	---	57.2	57.6	57.6	30.085	0.00	0.00	0.325	0.000	78.1	45	55.0	77.7	1405	1	100.0	60
11/09/17	9:00 a	58.1	58.1	57.2	99	57.8	0.0	ENE	0.00	4.0	ENE	58.1	58.5	58.5	30.086	0.03	0.10	0.288	0.000	79.1	44	55.3	78.7	1405	1	100.0	60
11/09/17	10:00 a	58.7	58.7	58.1	99	58.4	0.0	---	0.00	0.0	---	58.7	59.2	59.2	30.076	0.00	0.00	0.262	0.000	74.9	50	55.0	75.0	1405	1	100.0	60
11/09/17	11:00 a	59.4	59.4	58.7	97	58.5	0.0	---	0.00	0.0	---	59.4	59.9	59.9	30.060	0.00	0.00	0.233	0.000	73.6	52	54.9	73.4	1405	1	100.0	60
11/09/17	12:00 p	60.5	60.5	59.4	92	58.2	0.0	NE	0.00	12.0	NE	60.5	60.9	60.9	30.036	0.00	0.00	0.188	0.000	73.5	52	54.8	73.3	1405	1	100.0	60
11/09/17	1:00 p	61.3	61.3	60.5	89	58.0	0.0	NE	0.00	12.0	NE	61.3	61.7	61.7	30.005	0.00	0.00	0.154	0.000	73.4	53	55.2	73.3	1405	1	100.0	60
11/09/17	2:00 p	61.5	61.5	61.2	89	58.2	0.0	NE	0.00	12.0	NE	61.5	61.9	61.9	30.005	0.00	0.00	0.146	0.000	73.5	53	55.3	73.4	1405	1	100.0	60
11/09/17	3:00 p	61.1	61.5	61.1	87	57.2	0.0	NE	0.00	7.0	NNE	61.1	61.4	61.4	29.996	0.00	0.00	0.163	0.000	73.5	53	55.3	73.4	1405	1	100.0	60
11/09/17	4:00 p	61.1	61.2	61.1	87	57.2	0.0	NE	0.00	11.0	ENE	61.1	61.4	61.4	30.009	0.00	0.00	0.163	0.000	73.4	53	55.2	73.3	1404	1	100.0	60
11/09/17	5:00 p	60.7	61.1	60.7	88	57.1	0.0	NNE	0.00	7.0	NE	60.7	61.0	61.0	30.008	0.00	0.00	0.179	0.000	73.1	53	54.9	72.9	1405	1	100.0	60
11/09/17	6:00 p	60.1	60.7	60.0	91	57.5	0.0	NE	0.00	5.0	NE	60.1	60.4	60.4	30.013	0.00	0.00	0.204	0.000	73.0	54	55.4	72.9	1406	1	100.0	60
11/09/17	7:00 p	59.5	60.1	59.5	93	57.5	0.0	---	0.00	0.0	---	59.5	59.8	59.8	30.023	0.00	0.00	0.229	0.000	72.8	54	55.2	72.6	1404	1	100.0	60
11/09/17	8:00 p	59.1	59.5	59.1	93	57.1	0.0	---	0.00	0.0	---	59.1	59.4	59.4	30.020	0.00	0.00	0.246	0.000	74.0	53	55.8	74.0	1405	1	100.0	60
11/09/17	9:00 p	59.3	59.3	59.1	91	56.7	0.0	NE	0.00	7.0	NE	59.3	59.6	59.6	30.016	0.00	0.00	0.238	0.000	78.8	48	57.4	78.8	1405	1	100.0	60
11/09/17	10:00 p	59.1	59.3	59.1	91	56.5	0.0	---	0.00	0.0	---	59.1	59.3	59.3	30.012	0.00	0.00	0.246	0.000	79.5	47	57.5	79.3	1405	1	100.0	60
11/09/17	11:00 p	58.7	59.1	58.7	92	56.4	0.0	---	0.00	0.0	---	58.7	59.0	59.0	30.015	0.00	0.00	0.262	0.000	79.3	47	57.3	79.2	1405	1	100.0	60
11/10/17	12:00 a	58.5	58.7	58.5	92	56.2	0.0	NNW	0.00	10.0	NW	58.5	58.7	58.7	30.008	0.00	0.00	0.271	0.000	78.7	47	56.8	78.6	1405	1	100.0	60

FRIDAY			Temp	Hi	Low	Out	Dew	Wind	Wind	Wind	Hi	Hi	Wind	Heat	THW			Rain	Heat	Cool	In 	In	In 	In 	Wind	Wind	ISS 	Arc.
Date		Time	Out	Temp	Temp	Hum	Pt.	Speed	Dir	Run	Speed	Dir	Chill	Index	Index	Bar  	Rain	Rate	D-D 	D-D 	Temp	Hum	Dew	Heat	Samp	Tx 	Recept	Int.
11/10/17	1:00 a	57.5	58.5	57.5	93	55.5	0.0	---	0.00	0.0	---	57.5	57.7	57.7	30.003	0.00	0.00	0.313	0.000	78.5	47	56.6	78.3	1404	1	100.0	60
11/10/17	2:00 a	57.0	57.5	56.9	96	55.9	0.0	---	0.00	0.0	---	57.0	57.2	57.2	30.005	0.00	0.00	0.333	0.000	78.0	47	56.1	77.8	1405	1	100.0	60
11/10/17	3:00 a	56.4	57.0	56.4	96	55.3	0.0	NW	0.00	12.0	WNW	56.4	56.6	56.6	29.999	0.00	0.00	0.358	0.000	77.6	47	55.8	77.3	1404	1	100.0	60
11/10/17	4:00 a	55.9	56.4	55.9	97	55.1	0.0	---	0.00	0.0	---	55.9	56.2	56.2	30.008	0.00	0.00	0.379	0.000	77.2	48	56.0	76.9	1405	1	100.0	60
11/10/17	5:00 a	55.4	55.9	55.3	95	54.0	0.0	NW	0.00	16.0	NW	55.4	55.6	55.6	30.032	0.00	0.00	0.400	0.000	78.5	47	56.6	78.3	1405	1	100.0	60
11/10/17	6:00 a	54.8	55.4	54.7	70	45.2	4.0	NE	4.00	20.0	NE	54.4	54.0	53.6	30.064	0.00	0.00	0.425	0.000	79.9	46	57.3	79.6	1405	1	100.0	60
11/10/17	7:00 a	53.8	54.8	53.8	67	43.1	6.0	NNW	6.00	24.0	NE	52.2	52.9	51.3	30.085	0.00	0.00	0.467	0.000	79.5	45	56.3	79.1	1405	1	100.0	60
11/10/17	8:00 a	54.0	54.0	53.5	67	43.3	5.0	NE	5.00	19.0	ENE	52.9	53.1	52.0	30.112	0.00	0.00	0.458	0.000	80.5	44	56.6	80.0	1405	1	100.0	60
11/10/17	9:00 a	54.8	54.8	54.0	67	44.0	7.0	NNW	7.00	27.0	NE	53.0	53.9	52.1	30.131	0.00	0.00	0.425	0.000	81.6	43	56.9	81.1	1405	1	100.0	60
11/10/17	10:00 a	54.5	55.0	54.5	67	43.8	5.0	NW	5.00	24.0	NNW	53.5	53.6	52.6	30.159	0.00	0.00	0.438	0.000	82.0	43	57.3	81.7	1405	1	100.0	60
11/10/17	11:00 a	54.9	54.9	54.6	66	43.7	5.0	NNW	5.00	23.0	NNW	54.0	53.9	53.0	30.179	0.00	0.00	0.421	0.000	82.4	42	57.0	82.1	1405	1	100.0	60
11/10/17	12:00 p	55.3	55.3	54.9	65	43.7	4.0	NNW	4.00	23.0	NE	55.0	54.3	54.0	30.172	0.00	0.00	0.404	0.000	82.4	41	56.3	82.0	1405	1	100.0	60
11/10/17	1:00 p	53.5	55.4	53.5	61	40.4	0.0	NW	0.00	23.0	NNW	53.5	52.4	52.4	30.185	0.00	0.00	0.479	0.000	81.7	41	55.7	81.0	1404	1	100.0	60
11/10/17	2:00 p	52.7	53.5	52.7	58	38.3	0.0	NE	0.00	22.0	NE	52.7	51.5	51.5	30.196	0.00	0.00	0.512	0.000	82.9	40	56.1	82.6	1405	1	100.0	60
11/10/17	3:00 p	51.2	52.7	51.2	55	35.6	4.0	NW	4.00	24.0	N	50.2	50.1	49.1	30.223	0.00	0.00	0.575	0.000	82.2	40	55.5	81.6	1405	1	100.0	60
11/10/17	4:00 p	50.0	51.2	50.0	55	34.5	0.0	NE	0.00	19.0	NE	50.0	49.0	49.0	30.270	0.00	0.00	0.625	0.000	82.3	39	54.9	81.6	1404	1	100.0	60
11/10/17	5:00 p	47.0	50.0	47.0	54	31.2	0.0	NNW	0.00	20.0	NW	47.0	46.0	46.0	30.308	0.00	0.00	0.750	0.000	79.9	40	53.4	78.9	1405	1	100.0	60
11/10/17	6:00 p	45.1	47.0	45.1	59	31.6	0.0	ENE	0.00	13.0	ENE	45.1	44.3	44.3	30.349	0.00	0.00	0.829	0.000	80.5	39	53.3	79.4	1405	1	100.0	60
11/10/17	7:00 p	43.8	45.1	43.8	61	31.2	0.0	NW	0.00	18.0	ENE	43.8	43.0	43.0	30.385	0.00	0.00	0.883	0.000	80.3	38	52.4	79.1	1405	1	100.0	60
11/10/17	8:00 p	42.8	43.8	42.7	60	29.9	4.0	NW	4.00	25.0	N	40.6	42.0	39.8	30.410	0.00	0.00	0.925	0.000	80.0	38	52.1	78.8	1405	1	100.0	60
11/10/17	9:00 p	41.9	42.8	41.9	62	29.8	0.0	NW	0.00	21.0	NNW	41.9	41.1	41.1	30.425	0.00	0.00	0.962	0.000	79.8	37	51.2	78.6	1405	1	100.0	60
11/10/17	10:00 p	41.9	42.0	41.8	64	30.6	0.0	NE	0.00	23.0	NE	41.9	41.2	41.2	30.444	0.00	0.00	0.962	0.000	80.0	37	51.4	78.7	1405	1	100.0	60
11/10/17	11:00 p	40.1	41.9	40.1	64	28.9	4.0	NNE	4.00	23.0	NE	37.4	39.4	36.7	30.456	0.00	0.00	1.038	0.000	79.8	37	51.2	78.6	1405	1	100.0	60
11/11/17	12:00 a	38.8	40.1	38.8	66	28.4	0.0	NE	0.00	17.0	ENE	38.8	38.1	38.1	30.458	0.00	0.00	1.092	0.000	78.0	37	49.6	76.9	1406	1	100.0	60
11/11/17	1:00 a	38.4	38.8	38.4	61	26.1	0.0	ENE	0.00	17.0	ENE	38.4	37.6	37.6	30.465	0.00	0.00	1.108	0.000	77.9	36	48.8	76.7	1402	1	100.0	60

SATURDAY		Temp	Hi	Low	Out	Dew	Wind	Wind	Wind	Hi	Hi	Wind	Heat	THW			Rain	Heat	Cool	In 	In	In 	In 	Wind	Wind	ISS 	Arc.
Date		Time	Out	Temp	Temp	Hum	Pt.	Speed	Dir	Run	Speed	Dir	Chill	Index	Index	Bar  	Rain	Rate	D-D 	D-D 	Temp	Hum	Dew	Heat	Samp	Tx 	Recept	Int.
11/11/17	1:00 a	38.4	38.8	38.4	61	26.1	0.0	ENE	0.00	17.0	ENE	38.4	37.6	37.6	30.465	0.00	0.00	1.108	0.000	77.9	36	48.8	76.7	1402	1	100.0	60
11/11/17	2:00 a	37.9	38.4	37.9	58	24.4	0.0	ENE	0.00	23.0	ENE	37.9	37.1	37.1	30.475	0.00	0.00	1.129	0.000	77.3	36	48.3	76.3	1404	1	100.0	60
11/11/17	3:00 a	37.0	37.9	37.0	57	23.2	0.0	NNE	0.00	4.0	ENE	37.0	36.1	36.1	30.480	0.00	0.00	1.167	0.000	77.0	36	48.0	76.0	1405	1	100.0	60
11/11/17	4:00 a	36.6	37.0	36.6	59	23.6	0.0	NE	0.00	15.0	N	36.6	35.8	35.8	30.482	0.00	0.00	1.183	0.000	76.8	35	47.1	75.8	1405	1	100.0	60
11/11/17	5:00 a	35.6	36.6	35.6	49	18.3	0.0	ENE	0.00	18.0	ENE	35.6	34.6	34.6	30.510	0.00	0.00	1.225	0.000	76.6	35	46.9	75.5	1405	1	100.0	60
11/11/17	6:00 a	34.6	35.6	34.6	53	19.2	0.0	ENE	0.00	4.0	ENE	34.6	33.8	33.8	30.524	0.00	0.00	1.267	0.000	77.5	34	46.9	76.3	1405	1	100.0	60
11/11/17	7:00 a	34.4	34.6	34.3	67	24.6	0.0	NE	0.00	14.0	ENE	34.4	33.8	33.8	30.541	0.00	0.00	1.275	0.000	78.3	34	47.6	77.0	1405	1	100.0	60
11/11/17	8:00 a	35.3	35.3	34.4	72	27.2	0.0	NE	0.00	7.0	NE	35.3	34.8	34.8	30.564	0.00	0.00	1.238	0.000	78.7	33	47.2	77.3	1405	1	100.0	60
11/11/17	9:00 a	37.1	37.1	35.3	71	28.6	0.0	ENE	0.00	15.0	ENE	37.1	36.5	36.5	30.564	0.00	0.00	1.163	0.000	79.0	33	47.4	77.6	1405	1	100.0	60
11/11/17	10:00 a	38.9	38.9	37.1	70	29.9	0.0	NE	0.00	18.0	NNE	38.9	38.3	38.3	30.574	0.00	0.00	1.087	0.000	80.1	32	47.6	78.3	1405	1	100.0	60
11/11/17	11:00 a	39.6	39.8	38.9	65	28.8	0.0	NNW	0.00	19.0	ENE	39.6	38.9	38.9	30.571	0.00	0.00	1.058	0.000	80.1	32	47.6	78.3	1405	1	100.0	60
11/11/17	12:00 p	40.3	40.4	39.6	65	29.5	0.0	NW	0.00	15.0	NW	40.3	39.6	39.6	30.547	0.00	0.00	1.029	0.000	81.8	31	48.2	80.0	1404	1	100.0	60
11/11/17	1:00 p	40.5	40.6	40.3	66	30.0	0.0	NE	0.00	18.0	NE	40.5	39.8	39.8	30.525	0.00	0.00	1.021	0.000	82.3	31	48.6	80.5	1405	1	100.0	60
11/11/17	2:00 p	41.1	41.1	40.5	63	29.5	0.0	NW	0.00	15.0	NE	41.1	40.4	40.4	30.506	0.00	0.00	0.996	0.000	84.0	30	49.2	82.3	1405	1	100.0	60
11/11/17	3:00 p	41.3	41.5	41.1	63	29.6	0.0	NE	0.00	14.0	NW	41.3	40.6	40.6	30.499	0.00	0.00	0.988	0.000	83.4	31	49.6	81.7	1405	1	100.0	60
11/11/17	4:00 p	40.6	41.3	40.6	65	29.7	0.0	ENE	0.00	13.0	NW	40.6	39.9	39.9	30.508	0.00	0.00	1.017	0.000	82.6	31	48.9	80.8	1405	1	100.0	60
11/11/17	5:00 p	39.5	40.6	39.5	67	29.4	0.0	N	0.00	7.0	NE	39.5	38.8	38.8	30.501	0.00	0.00	1.063	0.000	82.4	31	48.7	80.6	1405	1	100.0	60
11/11/17	6:00 p	38.7	39.5	38.7	70	29.8	0.0	NE	0.00	11.0	ENE	38.7	38.1	38.1	30.510	0.00	0.00	1.096	0.000	81.8	31	48.2	80.0	1405	1	100.0	60
11/11/17	7:00 p	38.1	38.7	38.1	73	30.2	0.0	---	0.00	0.0	---	38.1	37.6	37.6	30.497	0.00	0.00	1.121	0.000	80.8	32	48.2	79.0	1405	1	100.0	60
11/11/17	8:00 p	36.9	38.1	36.9	79	31.0	0.0	---	0.00	0.0	---	36.9	36.6	36.6	30.507	0.00	0.00	1.171	0.000	79.9	32	47.4	78.1	1405	1	100.0	60
11/11/17	9:00 p	36.1	36.9	36.1	83	31.4	0.0	---	0.00	0.0	---	36.1	35.9	35.9	30.512	0.00	0.00	1.204	0.000	79.6	32	47.1	77.9	1405	1	100.0	60
11/11/17	10:00 p	35.4	36.1	35.4	85	31.3	0.0	---	0.00	0.0	---	35.4	35.2	35.2	30.496	0.00	0.00	1.233	0.000	79.7	32	47.2	78.0	1405	1	100.0	60
11/11/17	11:00 p	35.3	35.4	35.1	88	32.1	0.0	---	0.00	0.0	---	35.3	35.2	35.2	30.486	0.00	0.00	1.238	0.000	79.3	32	46.9	77.7	1404	1	100.0	60
11/12/17	12:00 a	35.1	35.3	35.1	89	32.2	0.0	---	0.00	0.0	---	35.1	35.0	35.0	30.474	0.00	0.00	1.246	0.000	78.3	32	46.0	76.8	1405	1	100.0	60

SUNDAY			Temp	Hi	Low	Out	Dew	Wind	Wind	Wind	Hi	Hi	Wind	Heat	THW			Rain	Heat	Cool	In 	In	In 	In 	Wind	Wind	ISS 	Arc.
Date		Time	Out	Temp	Temp	Hum	Pt.	Speed	Dir	Run	Speed	Dir	Chill	Index	Index	Bar  	Rain	Rate	D-D 	D-D 	Temp	Hum	Dew	Heat	Samp	Tx 	Recept	Int.
11/12/17	1:00 a	34.6	35.1	34.6	89	31.7	0.0	---	0.00	0.0	---	34.6	34.4	34.4	30.464	0.00	0.00	1.267	0.000	78.1	32	45.8	76.6	1403	1	100.0	60
11/12/17	2:00 a	34.1	34.6	34.1	90	31.5	0.0	---	0.00	0.0	---	34.1	33.9	33.9	30.460	0.00	0.00	1.288	0.000	78.3	32	46.0	76.8	1405	1	100.0	60
11/12/17	3:00 a	35.1	35.1	34.0	93	33.3	0.0	---	0.00	0.0	---	35.1	35.1	35.1	30.448	0.00	0.00	1.246	0.000	78.2	32	45.9	76.7	1405	1	100.0	60
11/12/17	4:00 a	37.2	37.2	35.1	92	35.1	0.0	---	0.00	0.0	---	37.2	37.1	37.1	30.445	0.00	0.00	1.158	0.000	78.1	32	45.8	76.6	1405	1	100.0	60
11/12/17	5:00 a	38.2	38.2	37.2	90	35.5	0.0	---	0.00	0.0	---	38.2	38.1	38.1	30.434	0.00	0.00	1.117	0.000	78.0	32	45.7	76.5	1405	1	100.0	60
11/12/17	6:00 a	39.1	39.1	38.2	91	36.7	0.0	---	0.00	0.0	---	39.1	39.0	39.0	30.437	0.00	0.00	1.079	0.000	78.6	32	46.3	77.1	1405	1	100.0	60
11/12/17	7:00 a	39.9	39.9	39.1	92	37.8	0.0	---	0.00	0.0	---	39.9	39.9	39.9	30.444	0.00	0.00	1.046	0.000	79.8	32	47.3	78.0	1405	1	100.0	60
11/12/17	8:00 a	41.5	41.5	39.9	88	38.2	0.0	---	0.00	0.0	---	41.5	41.4	41.4	30.452	0.00	0.00	0.979	0.000	79.4	32	47.0	77.7	1404	1	100.0	60
11/12/17	9:00 a	44.9	44.9	41.5	84	40.4	0.0	WNW	0.00	4.0	WNW	44.9	44.8	44.8	30.445	0.00	0.00	0.837	0.000	81.5	31	47.9	79.7	1405	1	100.0	60
11/12/17	10:00 a	47.6	47.6	44.9	80	41.7	0.0	NW	0.00	7.0	NW	47.6	47.5	47.5	30.445	0.00	0.00	0.725	0.000	82.0	31	48.4	80.2	1405	1	100.0	60
11/12/17	11:00 a	49.5	49.5	47.6	75	41.9	0.0	NNE	0.00	5.0	NNW	49.5	49.3	49.3	30.435	0.00	0.00	0.646	0.000	83.0	32	50.1	81.3	1405	1	100.0	60
11/12/17	12:00 p	51.7	51.7	49.5	73	43.3	0.0	---	0.00	0.0	---	51.7	51.3	51.3	30.403	0.00	0.00	0.554	0.000	83.7	32	50.7	82.3	1405	1	100.0	60
11/12/17	1:00 p	52.8	52.8	51.7	69	42.9	0.0	ENE	0.00	10.0	ENE	52.8	52.1	52.1	30.378	0.00	0.00	0.508	0.000	83.3	32	50.4	81.7	1405	1	100.0	60
11/12/17	2:00 p	53.5	53.5	52.8	72	44.7	0.0	ENE	0.00	10.0	ENE	53.5	52.9	52.9	30.362	0.00	0.00	0.479	0.000	82.9	33	50.8	81.4	1405	1	100.0	60
11/12/17	3:00 p	53.0	53.5	52.8	75	45.3	0.0	---	0.00	0.0	---	53.0	52.5	52.5	30.364	0.00	0.00	0.500	0.000	82.8	34	51.6	81.4	1405	1	100.0	60
11/12/17	4:00 p	52.1	53.0	52.1	77	45.1	0.0	ENE	0.00	6.0	NE	52.1	51.8	51.8	30.362	0.00	0.00	0.538	0.000	81.8	34	50.7	80.3	1405	1	100.0	60
11/12/17	5:00 p	51.0	52.1	51.0	79	44.7	0.0	NE	0.00	7.0	ENE	51.0	50.9	50.9	30.361	0.00	0.00	0.583	0.000	82.4	34	51.2	81.0	1405	1	100.0	60
11/12/17	6:00 p	50.4	51.0	50.3	80	44.5	0.0	NE	0.00	12.0	ENE	50.4	50.4	50.4	30.364	0.00	0.00	0.608	0.000	82.5	34	51.3	81.1	1405	1	100.0	60
11/12/17	7:00 p	50.4	50.4	50.3	81	44.8	0.0	---	0.00	0.0	---	50.4	50.4	50.4	30.362	0.00	0.00	0.608	0.000	82.3	34	51.1	80.9	1405	1	100.0	60
11/12/17	8:00 p	50.4	50.5	50.3	85	46.1	0.0	---	0.00	0.0	---	50.4	50.5	50.5	30.361	0.00	0.00	0.608	0.000	82.3	34	51.1	80.9	1404	1	100.0	60
11/12/17	9:00 p	50.4	50.5	50.4	87	46.7	0.0	---	0.00	0.0	---	50.4	50.5	50.5	30.350	0.00	0.00	0.608	0.000	82.1	34	50.9	80.7	1406	1	100.0	60
11/12/17	10:00 p	50.7	50.7	50.4	83	45.7	0.0	---	0.00	0.0	---	50.7	50.7	50.7	30.335	0.00	0.00	0.596	0.000	82.2	34	51.0	80.8	1404	1	100.0	60
11/12/17	11:00 p	51.1	51.1	50.7	84	46.4	0.0	---	0.00	0.0	---	51.1	51.1	51.1	30.315	0.00	0.00	0.579	0.000	82.4	35	52.0	81.1	1405	1	100.0	60
11/13/17	12:00 a	51.4	51.4	51.1	86	47.4	0.0	---	0.00	0.0	---	51.4	51.4	51.4	30.302	0.00	0.00	0.567	0.000	82.4	35	52.0	81.1	1405	1	100.0	60

MONDAY			Temp	Hi	Low	Out	Dew	Wind	Wind	Wind	Hi	Hi	Wind	Heat	THW			Rain	Heat	Cool	In 	In	In 	In 	Wind	Wind	ISS 	Arc.
Date		Time	Out	Temp	Temp	Hum	Pt.	Speed	Dir	Run	Speed	Dir	Chill	Index	Index	Bar  	Rain	Rate	D-D 	D-D 	Temp	Hum	Dew	Heat	Samp	Tx 	Recept	Int.
11/13/17	1:00 a	51.3	51.4	51.3	88	47.9	0.0	---	0.00	0.0	---	51.3	51.4	51.4	30.269	0.00	0.00	0.571	0.000	82.1	35	51.7	80.8	1404	1	100.0	60
11/13/17	2:00 a	51.4	51.5	51.3	90	48.6	0.0	---	0.00	0.0	---	51.4	51.6	51.6	30.253	0.00	0.00	0.567	0.000	81.9	35	51.6	80.6	1405	1	100.0	60
11/13/17	3:00 a	51.6	51.6	51.4	92	49.4	0.0	---	0.00	0.0	---	51.6	51.9	51.9	30.236	0.00	0.00	0.558	0.000	81.4	35	51.1	80.0	1405	1	100.0	60
11/13/17	4:00 a	52.5	52.5	51.6	94	50.8	0.0	NW	0.00	10.0	NW	52.5	52.8	52.8	30.233	0.00	0.00	0.521	0.000	81.4	36	51.9	80.1	1405	1	100.0	60
11/13/17	5:00 a	50.5	52.7	50.5	91	48.0	6.0	NW	6.00	18.0	NNW	48.3	50.8	48.6	30.255	0.01	0.00	0.604	0.000	81.4	36	51.9	80.1	1405	1	100.0	60
11/13/17	6:00 a	47.7	50.5	47.7	94	46.1	6.0	N	6.00	21.0	N	44.9	48.0	45.2	30.261	0.04	0.11	0.721	0.000	80.8	36	51.4	79.4	1405	1	100.0	60
11/13/17	7:00 a	47.3	47.7	47.1	97	46.5	0.0	N	0.00	16.0	N	47.3	47.7	47.7	30.250	0.14	0.30	0.738	0.000	81.2	36	51.7	79.8	1405	1	100.0	60
11/13/17	8:00 a	48.2	48.2	47.3	98	47.7	0.0	---	0.00	0.0	---	48.2	48.7	48.7	30.259	0.15	0.36	0.700	0.000	81.9	35	51.6	80.6	1404	1	100.0	60
11/13/17	9:00 a	49.4	49.5	48.2	98	48.9	0.0	---	0.00	0.0	---	49.4	50.0	50.0	30.258	0.19	0.29	0.650	0.000	81.5	35	51.2	80.1	1405	1	100.0	60
11/13/17	10:00 a	49.4	49.4	49.3	98	48.9	0.0	WNW	0.00	7.0	WNW	49.4	50.0	50.0	30.257	0.04	0.29	0.650	0.000	80.1	37	51.5	78.8	1405	1	100.0	60
11/13/17	11:00 a	49.9	49.9	49.3	97	49.1	0.0	---	0.00	0.0	---	49.9	50.5	50.5	30.261	0.00	0.00	0.629	0.000	78.5	40	52.2	77.6	1405	1	100.0	60
11/13/17	12:00 p	50.6	50.8	49.9	95	49.2	0.0	---	0.00	0.0	---	50.6	51.0	51.0	30.240	0.00	0.00	0.600	0.000	75.0	42	50.3	74.4	1405	1	100.0	60
11/13/17	1:00 p	49.8	50.6	49.8	94	48.1	0.0	---	0.00	0.0	---	49.8	50.3	50.3	30.239	0.00	0.00	0.633	0.000	74.5	43	50.5	73.9	1405	1	100.0	60
11/13/17	2:00 p	49.6	49.8	49.6	93	47.7	0.0	NW	0.00	16.0	NW	49.6	50.0	50.0	30.227	0.00	0.00	0.642	0.000	75.1	42	50.4	74.5	1405	1	100.0	60
11/13/17	3:00 p	48.9	49.7	48.9	93	47.0	0.0	WNW	0.00	15.0	NNW	48.9	49.3	49.3	30.234	0.00	0.00	0.671	0.000	74.2	43	50.3	73.5	1405	1	100.0	60
11/13/17	4:00 p	48.3	48.9	48.3	93	46.4	4.0	NW	4.00	16.0	NW	46.9	48.6	47.2	30.236	0.00	0.00	0.696	0.000	74.7	43	50.7	74.1	1405	1	100.0	60
11/13/17	5:00 p	48.0	48.3	47.9	93	46.1	5.0	NW	5.00	16.0	WNW	45.9	48.3	46.2	30.246	0.00	0.00	0.708	0.000	73.8	43	49.9	73.0	1405	1	100.0	60
11/13/17	6:00 p	47.3	48.0	47.3	92	45.1	5.0	NNW	5.00	18.0	NW	45.1	47.6	45.4	30.271	0.00	0.00	0.738	0.000	74.9	42	50.3	74.3	1405	1	100.0	60
11/13/17	7:00 p	46.9	47.4	46.8	92	44.7	4.0	NW	4.00	16.0	NNW	45.3	47.1	45.5	30.283	0.00	0.00	0.754	0.000	77.5	40	51.3	76.6	1404	1	100.0	60
11/13/17	8:00 p	46.2	46.9	46.2	92	44.0	4.0	NW	4.00	15.0	NNW	44.4	46.4	44.6	30.274	0.00	0.00	0.783	0.000	79.4	37	50.9	78.3	1405	1	100.0	60
11/13/17	9:00 p	46.8	46.8	46.1	91	44.3	4.0	NW	4.00	17.0	NW	45.2	47.0	45.4	30.275	0.00	0.00	0.758	0.000	79.4	37	50.9	78.3	1406	1	100.0	60
11/13/17	10:00 p	47.8	47.8	46.8	90	45.0	5.0	NNW	5.00	18.0	NNW	45.7	48.0	45.9	30.264	0.00	0.00	0.717	0.000	79.2	37	50.7	78.1	1404	1	100.0	60
11/13/17	11:00 p	48.5	48.5	47.8	91	46.0	5.0	NNW	5.00	17.0	NW	46.5	48.8	46.8	30.255	0.00	0.00	0.688	0.000	79.3	37	50.8	78.2	1405	1	100.0	60
11/14/17	12:00 a	48.2	48.5	48.2	91	45.7	5.0	NW	5.00	15.0	N	46.1	48.5	46.4	30.260	0.00	0.00	0.700	0.000	79.8	37	51.2	78.6	1405	1	100.0	60

TUESDAY			Temp	Hi	Low	Out	Dew	Wind	Wind	Wind	Hi	Hi	Wind	Heat	THW			Rain	Heat	Cool	In 	In	In 	In 	Wind	Wind	ISS 	Arc.
Date		Time	Out	Temp	Temp	Hum	Pt.	Speed	Dir	Run	Speed	Dir	Chill	Index	Index	Bar  	Rain	Rate	D-D 	D-D 	Temp	Hum	Dew	Heat	Samp	Tx 	Recept	Int.
11/14/17	1:00 a	48.0	48.2	48.0	92	45.8	4.0	NNW	4.00	18.0	NNW	46.6	48.3	46.9	30.250	0.00	0.00	0.708	0.000	79.9	37	51.3	78.6	1404	1	100.0	60
11/14/17	2:00 a	48.6	48.6	48.0	93	46.7	4.0	NW	4.00	14.0	NNW	47.3	49.0	47.7	30.252	0.00	0.00	0.683	0.000	79.9	37	51.3	78.6	1405	1	100.0	60
11/14/17	3:00 a	48.8	48.9	48.5	91	46.3	4.0	NNW	4.00	15.0	NW	47.5	49.1	47.8	30.255	0.00	0.00	0.675	0.000	79.9	37	51.3	78.6	1405	1	100.0	60
11/14/17	4:00 a	47.9	48.8	47.9	91	45.4	5.0	NNW	5.00	17.0	NW	45.8	48.1	46.0	30.254	0.00	0.00	0.712	0.000	80.0	37	51.4	78.7	1405	1	100.0	60
11/14/17	5:00 a	47.9	47.9	47.7	93	46.0	5.0	NNW	5.00	16.0	NNW	45.8	48.2	46.1	30.243	0.00	0.00	0.712	0.000	80.0	37	51.4	78.7	1404	1	100.0	60
11/14/17	6:00 a	48.3	48.4	47.9	90	45.5	6.0	NNW	6.00	21.0	ENE	45.7	48.5	45.9	30.256	0.00	0.00	0.696	0.000	79.8	37	51.2	78.6	1405	1	100.0	60
11/14/17	7:00 a	48.3	48.3	48.2	91	45.8	4.0	NW	4.00	18.0	NNW	46.9	48.6	47.2	30.279	0.00	0.00	0.696	0.000	80.2	36	50.8	78.8	1405	1	100.0	60
11/14/17	8:00 a	48.6	48.6	48.3	89	45.5	7.0	NNW	7.00	19.0	NNW	45.5	48.8	45.7	30.296	0.00	0.00	0.683	0.000	80.2	37	51.6	78.9	1405	1	100.0	60
11/14/17	9:00 a	48.6	48.6	48.5	90	45.8	5.0	NNW	5.00	19.0	NNW	46.6	48.9	46.9	30.303	0.00	0.00	0.683	0.000	80.7	36	51.3	79.3	1405	1	100.0	60
11/14/17	10:00 a	50.6	50.6	48.6	74	42.6	7.0	NNW	7.00	22.0	ENE	47.9	50.3	47.6	30.307	0.00	0.00	0.600	0.000	80.4	37	51.7	79.1	1405	1	100.0	60
11/14/17	11:00 a	51.8	51.9	50.6	70	42.3	12.0	NE	12.00	24.0	NNW	46.4	51.2	45.8	30.301	0.00	0.00	0.550	0.000	80.9	37	52.2	79.6	1405	1	100.0	60
11/14/17	12:00 p	51.4	52.0	51.4	74	43.4	7.0	NE	7.00	24.0	ENE	48.9	51.0	48.5	30.275	0.00	0.00	0.567	0.000	80.6	37	51.9	79.3	1405	1	100.0	60
11/14/17	1:00 p	51.6	51.7	51.4	73	43.2	5.0	NW	5.00	23.0	NNE	50.1	51.2	49.7	30.256	0.00	0.00	0.558	0.000	80.3	36	50.9	78.9	1405	1	100.0	60
11/14/17	2:00 p	51.7	51.9	51.6	71	42.6	0.0	NNW	0.00	10.0	NE	51.7	51.2	51.2	30.241	0.00	0.00	0.554	0.000	82.3	35	51.9	81.0	1405	1	100.0	60
11/14/17	3:00 p	50.8	51.7	50.8	71	41.7	4.0	NE	4.00	22.0	NE	49.8	50.4	49.4	30.237	0.00	0.00	0.592	0.000	81.4	35	51.1	80.0	1405	1	100.0	60
11/14/17	4:00 p	49.9	50.7	49.9	74	41.9	0.0	NE	0.00	22.0	NE	49.9	49.7	49.7	30.229	0.00	0.00	0.629	0.000	81.3	35	51.0	79.9	1405	1	100.0	60
11/14/17	5:00 p	49.4	49.9	49.4	76	42.1	0.0	NW	0.00	17.0	NNW	49.4	49.2	49.2	30.232	0.00	0.00	0.650	0.000	80.1	35	50.0	78.6	1405	1	100.0	60
11/14/17	6:00 p	49.0	49.5	49.0	73	40.7	0.0	NE	0.00	20.0	ENE	49.0	48.7	48.7	30.235	0.00	0.00	0.667	0.000	80.9	35	50.7	79.4	1405	1	100.0	60
11/14/17	7:00 p	49.1	49.1	48.8	71	40.1	0.0	NW	0.00	17.0	WNW	49.1	48.7	48.7	30.236	0.00	0.00	0.663	0.000	80.5	35	50.3	79.0	1405	1	100.0	60
11/14/17	8:00 p	49.1	49.2	49.1	73	40.8	0.0	NNW	0.00	20.0	NNW	49.1	48.8	48.8	30.241	0.00	0.00	0.663	0.000	80.3	35	50.1	78.8	1404	1	100.0	60
11/14/17	9:00 p	48.6	49.1	48.6	75	41.0	0.0	NNW	0.00	15.0	NNW	48.6	48.3	48.3	30.240	0.00	0.00	0.683	0.000	80.0	35	49.9	78.5	1405	1	100.0	60
11/14/17	10:00 p	48.2	48.6	48.2	76	41.0	0.0	NW	0.00	16.0	NNW	48.2	47.9	47.9	30.231	0.00	0.00	0.700	0.000	79.7	35	49.6	78.3	1405	1	100.0	60
11/14/17	11:00 p	48.5	48.5	48.1	73	40.2	0.0	ENE	0.00	7.0	NE	48.5	48.1	48.1	30.220	0.00	0.00	0.688	0.000	79.5	35	49.4	78.2	1405	1	100.0	60
11/15/17	12:00 a	47.7	48.5	47.7	72	39.1	0.0	NE	0.00	11.0	NNE	47.7	47.3	47.3	30.217	0.00	0.00	0.721	0.000	79.0	35	49.0	77.8	1405	1	100.0	60

WEDNESDAY		Temp	Hi	Low	Out	Dew	Wind	Wind	Wind	Hi	Hi	Wind	Heat	THW			Rain	Heat	Cool	In 	In	In 	In 	Wind	Wind	ISS 	Arc.
Date		Time	Out	Temp	Temp	Hum	Pt.	Speed	Dir	Run	Speed	Dir	Chill	Index	Index	Bar  	Rain	Rate	D-D 	D-D 	Temp	Hum	Dew	Heat	Samp	Tx 	Recept	Int.
11/15/17	1:00 a	46.4	47.7	46.4	79	40.2	0.0	---	0.00	0.0	---	46.4	46.2	46.2	30.205	0.00	0.00	0.775	0.000	78.6	36	49.4	77.4	1404	1	100.0	60
11/15/17	2:00 a	44.8	46.4	44.8	80	39.0	0.0	NNW	0.00	16.0	NNW	44.8	44.6	44.6	30.193	0.00	0.00	0.842	0.000	78.5	35	48.6	77.3	1405	1	100.0	60
11/15/17	3:00 a	44.4	44.8	44.3	81	38.9	0.0	---	0.00	16.0	NNW	44.4	44.2	44.2	30.188	0.00	0.00	0.858	0.000	78.0	35	48.1	76.7	1405	1	100.0	60
11/15/17	4:00 a	44.9	45.0	44.4	81	39.4	0.0	NW	0.00	15.0	NNW	44.9	44.7	44.7	30.185	0.00	0.00	0.837	0.000	77.3	36	48.3	76.3	1404	1	100.0	60
11/15/17	5:00 a	45.1	45.1	44.7	84	40.6	0.0	---	0.00	0.0	---	45.1	45.0	45.0	30.183	0.00	0.00	0.829	0.000	77.1	36	48.1	76.1	1406	1	100.0	60
11/15/17	6:00 a	44.7	45.2	44.7	85	40.5	0.0	---	0.00	0.0	---	44.7	44.6	44.6	30.182	0.00	0.00	0.846	0.000	78.7	35	48.7	77.5	1404	1	100.0	60
11/15/17	7:00 a	43.8	44.7	43.8	89	40.8	0.0	---	0.00	0.0	---	43.8	43.8	43.8	30.191	0.00	0.00	0.883	0.000	78.4	35	48.5	77.1	1405	1	100.0	60
11/15/17	8:00 a	45.6	45.6	43.8	90	42.8	0.0	---	0.00	0.0	---	45.6	45.7	45.7	30.195	0.00	0.00	0.808	0.000	79.4	35	49.4	78.1	1405	1	100.0	60
11/15/17	9:00 a	47.5	47.5	45.6	89	44.4	0.0	NNW	0.00	16.0	NNW	47.5	47.7	47.7	30.198	0.00	0.00	0.729	0.000	79.7	36	50.4	78.4	1405	1	100.0	60
11/15/17	10:00 a	49.1	49.1	47.4	89	46.0	0.0	NNW	0.00	14.0	NW	49.1	49.4	49.4	30.190	0.00	0.00	0.663	0.000	79.0	36	49.8	77.9	1405	1	100.0	60
11/15/17	11:00 a	50.7	50.7	49.1	90	47.9	0.0	NNW	0.00	16.0	NW	50.7	50.9	50.9	30.162	0.00	0.00	0.596	0.000	79.2	36	49.9	78.0	1405	1	100.0	60
11/15/17	12:00 p	53.3	53.3	50.7	88	49.8	4.0	NNW	4.00	15.0	NNW	52.7	53.3	52.7	30.131	0.00	0.00	0.488	0.000	78.9	36	49.7	77.8	1405	1	100.0	60
11/15/17	1:00 p	54.5	54.5	53.3	87	50.7	5.0	NNW	5.00	15.0	NNW	53.5	54.5	53.5	30.102	0.00	0.00	0.438	0.000	80.0	36	50.6	78.6	1405	1	100.0	60
11/15/17	2:00 p	55.3	55.3	54.5	86	51.2	4.0	NNW	4.00	16.0	NW	55.0	55.2	54.9	30.087	0.00	0.00	0.404	0.000	79.1	36	49.8	78.0	1405	1	100.0	60
11/15/17	3:00 p	55.2	55.5	55.2	85	50.8	5.0	NNW	5.00	14.0	WNW	54.3	55.1	54.2	30.077	0.00	0.00	0.408	0.000	79.4	36	50.1	78.2	1405	1	100.0	60
11/15/17	4:00 p	54.9	55.2	54.8	86	50.8	4.0	NW	4.00	14.0	NNW	54.5	54.8	54.4	30.074	0.00	0.00	0.421	0.000	78.9	37	50.4	77.9	1404	1	100.0	60
11/15/17	5:00 p	54.0	54.9	54.0	87	50.2	0.0	NNW	0.00	11.0	NE	54.0	54.0	54.0	30.075	0.00	0.00	0.458	0.000	78.9	37	50.4	77.9	1405	1	100.0	60
11/15/17	6:00 p	52.7	54.0	52.7	89	49.5	0.0	NNE	0.00	5.0	NNE	52.7	52.8	52.8	30.070	0.00	0.00	0.512	0.000	79.3	37	50.8	78.2	1406	1	100.0	60
11/15/17	7:00 p	51.1	52.8	51.1	91	48.6	0.0	---	0.00	0.0	---	51.1	51.3	51.3	30.058	0.00	0.00	0.579	0.000	79.4	37	50.9	78.3	1404	1	100.0	60
11/15/17	8:00 p	50.0	51.1	50.0	92	47.8	0.0	NNE	0.00	4.0	NNE	50.0	50.4	50.4	30.048	0.00	0.00	0.625	0.000	79.4	37	50.9	78.3	1405	1	100.0	60
11/15/17	9:00 p	50.8	50.8	49.8	95	49.4	0.0	W	0.00	5.0	W	50.8	51.2	51.2	30.036	0.00	0.00	0.592	0.000	79.3	37	50.8	78.2	1405	1	100.0	60
11/15/17	10:00 p	50.6	50.9	50.6	94	48.9	0.0	---	0.00	0.0	---	50.6	51.0	51.0	30.024	0.00	0.00	0.600	0.000	78.3	38	50.6	77.3	1405	1	100.0	60
11/15/17	11:00 p	50.8	50.8	50.5	95	49.4	0.0	---	0.00	0.0	---	50.8	51.2	51.2	30.012	0.00	0.00	0.592	0.000	78.6	38	50.9	77.6	1405	1	100.0	60
11/16/17	12:00 a	51.4	51.4	50.8	93	49.4	0.0	WNW	0.00	6.0	W	51.4	51.7	51.7	30.014	0.00	0.00	0.567	0.000	79.8	37	51.2	78.6	1405	1	100.0	60

THURSDAY		Temp	Hi	Low	Out	Dew	Wind	Wind	Wind	Hi	Hi	Wind	Heat	THW			Rain	Heat	Cool	In 	In	In 	In 	Wind	Wind	ISS 	Arc.
Date		Time	Out	Temp	Temp	Hum	Pt.	Speed	Dir	Run	Speed	Dir	Chill	Index	Index	Bar  	Rain	Rate	D-D 	D-D 	Temp	Hum	Dew	Heat	Samp	Tx 	Recept	Int.
11/16/17	1:00 a	51.7	51.7	51.4	91	49.2	0.0	NW	0.00	12.0	W	51.7	51.9	51.9	29.999	0.00	0.00	0.554	0.000	80.1	37	51.5	78.8	1404	1	100.0	60
11/16/17	2:00 a	51.4	51.7	51.3	92	49.2	0.0	---	0.00	0.0	---	51.4	51.7	51.7	29.996	0.00	0.00	0.567	0.000	80.2	37	51.6	78.9	1404	1	100.0	60
11/16/17	3:00 a	51.3	51.4	51.3	91	48.8	0.0	WNW	0.00	14.0	WSW	51.3	51.5	51.5	29.986	0.00	0.00	0.571	0.000	80.3	37	51.7	79.0	1405	1	100.0	60
11/16/17	4:00 a	51.4	51.5	51.3	90	48.6	0.0	W	0.00	10.0	WNW	51.4	51.6	51.6	29.965	0.00	0.00	0.567	0.000	80.3	37	51.7	79.0	1406	1	100.0	60
11/16/17	5:00 a	50.7	51.4	50.7	90	47.9	0.0	W	0.00	5.0	W	50.7	50.9	50.9	29.974	0.00	0.00	0.596	0.000	80.1	37	51.5	78.8	1404	1	100.0	60
11/16/17	6:00 a	49.8	50.7	49.8	90	47.0	0.0	WSW	0.00	7.0	WNW	49.8	50.1	50.1	29.959	0.00	0.00	0.633	0.000	79.5	37	50.9	78.3	1405	1	100.0	60
11/16/17	7:00 a	48.3	49.8	48.3	91	45.8	0.0	WNW	0.00	7.0	W	48.3	48.6	48.6	29.959	0.00	0.00	0.696	0.000	80.3	37	51.7	79.0	1405	1	100.0	60
11/16/17	8:00 a	47.6	48.3	47.5	93	45.7	0.0	WSW	0.00	12.0	SSW	47.6	47.9	47.9	29.968	0.00	0.00	0.725	0.000	78.3	38	50.6	77.3	1405	1	100.0	60
11/16/17	9:00 a	49.7	49.7	47.6	84	45.1	4.0	W	4.00	15.0	WNW	48.5	49.8	48.6	29.969	0.00	0.00	0.637	0.000	75.3	42	50.6	74.7	1405	1	100.0	60
11/16/17	10:00 a	53.3	53.3	49.7	78	46.6	4.0	W	4.00	16.0	SW	52.7	52.9	52.3	29.968	0.00	0.00	0.488	0.000	75.7	42	51.0	75.0	1405	1	100.0	60
11/16/17	11:00 a	57.2	57.2	53.3	72	48.3	4.0	WNW	4.00	15.0	WNW	57.2	56.5	56.5	29.943	0.00	0.00	0.325	0.000	77.3	41	51.8	76.5	1405	1	100.0	60
11/16/17	12:00 p	60.4	60.4	57.2	63	47.7	7.0	W	7.00	20.0	WSW	59.7	59.4	58.7	29.911	0.00	0.00	0.192	0.000	78.4	40	52.1	77.5	1405	1	100.0	60
11/16/17	1:00 p	62.3	62.3	60.4	56	46.4	6.0	WNW	6.00	20.0	WSW	62.3	60.9	60.9	29.894	0.00	0.00	0.113	0.000	78.0	41	52.4	77.2	1405	1	100.0	60
11/16/17	2:00 p	63.1	63.1	62.3	58	48.1	0.0	WNW	0.00	18.0	WNW	63.1	61.9	61.9	29.880	0.00	0.00	0.079	0.000	80.4	39	53.2	79.3	1405	1	100.0	60
11/16/17	3:00 p	63.5	63.5	63.1	55	47.0	0.0	W	0.00	17.0	WNW	63.5	62.1	62.1	29.884	0.00	0.00	0.063	0.000	80.0	40	53.5	79.0	1404	1	100.0	60
11/16/17	4:00 p	62.7	63.5	62.7	53	45.3	0.0	NW	0.00	19.0	WSW	62.7	61.1	61.1	29.896	0.00	0.00	0.096	0.000	79.4	41	53.6	78.6	1406	1	100.0	60
11/16/17	5:00 p	60.7	62.7	60.7	59	46.3	0.0	---	0.00	0.0	---	60.7	59.4	59.4	29.911	0.00	0.00	0.179	0.000	78.8	41	53.1	78.1	1404	1	100.0	60
11/16/17	6:00 p	56.9	60.7	56.9	68	46.4	0.0	---	0.00	0.0	---	56.9	56.0	56.0	29.938	0.00	0.00	0.337	0.000	77.8	42	52.9	77.1	1405	1	100.0	60
11/16/17	7:00 p	52.8	56.9	52.8	76	45.4	0.0	---	0.00	0.0	---	52.8	52.4	52.4	29.957	0.00	0.00	0.508	0.000	77.6	42	52.7	76.9	1405	1	100.0	60
11/16/17	8:00 p	49.9	52.8	49.9	82	44.6	0.0	---	0.00	0.0	---	49.9	49.9	49.9	29.970	0.00	0.00	0.629	0.000	80.3	38	52.4	79.1	1405	1	100.0	60
11/16/17	9:00 p	47.7	49.9	47.7	85	43.4	0.0	---	0.00	0.0	---	47.7	47.7	47.7	29.983	0.00	0.00	0.721	0.000	80.6	37	51.9	79.3	1405	1	100.0	60
11/16/17	10:00 p	52.3	52.3	47.4	69	42.4	0.0	NW	0.00	20.0	NW	52.3	51.6	51.6	30.033	0.00	0.00	0.529	0.000	80.1	37	51.5	78.8	1405	1	100.0	60
11/16/17	11:00 p	51.7	52.7	51.7	63	39.5	0.0	NNW	0.00	20.0	NW	51.7	50.9	50.9	30.057	0.00	0.00	0.554	0.000	78.5	38	50.8	77.5	1405	1	100.0	60
11/17/17	12:00 a	49.5	51.7	49.5	65	38.2	0.0	NW	0.00	18.0	NW	49.5	48.9	48.9	30.075	0.00	0.00	0.646	0.000	79.5	37	50.9	78.3	1406	1	100.0	60

FRIDAY			Temp	Hi	Low	Out	Dew	Wind	Wind	Wind	Hi	Hi	Wind	Heat	THW			Rain	Heat	Cool	In 	In	In 	In 	Wind	Wind	ISS 	Arc.
Date		Time	Out	Temp	Temp	Hum	Pt.	Speed	Dir	Run	Speed	Dir	Chill	Index	Index	Bar  	Rain	Rate	D-D 	D-D 	Temp	Hum	Dew	Heat	Samp	Tx 	Recept	Int.
11/17/17	1:00 a	47.4	49.5	47.4	67	37.0	0.0	WNW	0.00	16.0	WNW	47.4	46.8	46.8	30.083	0.00	0.00	0.733	0.000	79.9	36	50.6	78.5	1403	1	100.0	60
11/17/17	2:00 a	45.9	47.4	45.9	68	35.9	0.0	NW	0.00	20.0	NNW	45.9	45.3	45.3	30.110	0.00	0.00	0.796	0.000	79.8	36	50.5	78.5	1404	1	100.0	60
11/17/17	3:00 a	44.9	45.9	44.9	69	35.3	0.0	NNW	0.00	23.0	NW	44.9	44.4	44.4	30.122	0.00	0.00	0.837	0.000	79.6	36	50.3	78.3	1405	1	100.0	60
11/17/17	4:00 a	44.3	45.0	44.3	69	34.8	0.0	NW	0.00	18.0	NNW	44.3	43.8	43.8	30.123	0.00	0.00	0.863	0.000	79.2	35	49.2	77.9	1405	1	100.0	60
11/17/17	5:00 a	44.3	44.6	44.3	67	34.0	0.0	NNW	0.00	19.0	NNW	44.3	43.7	43.7	30.144	0.00	0.00	0.863	0.000	79.2	35	49.2	77.9	1405	1	100.0	60
11/17/17	6:00 a	43.5	44.3	43.5	69	34.0	0.0	NNW	0.00	4.0	NNW	43.5	42.9	42.9	30.163	0.00	0.00	0.896	0.000	78.2	35	48.3	76.9	1405	1	100.0	60
11/17/17	7:00 a	42.9	43.5	42.9	73	34.8	0.0	WNW	0.00	5.0	WNW	42.9	42.4	42.4	30.175	0.00	0.00	0.921	0.000	78.5	35	48.6	77.3	1405	1	100.0	60

			Temp	Hi	Low	Out	Dew	Wind	Wind	Wind	Hi	Hi	Wind	Heat	THW			Rain	Heat	Cool	In 	In	In 	In 	Wind	Wind	ISS 	Arc.
Date		Time	Out	Temp	Temp	Hum	Pt.	Speed	Dir	Run	Speed	Dir	Chill	Index	Index	Bar  	Rain	Rate	D-D 	D-D 	Temp	Hum	Dew	Heat	Samp	Tx 	Recept	Int.